Observation data for Vega on 02/24/2021      Previous  Date  Next       Current Mesonet Observations  Soil Data  Daily Summary Page  Observations in Plain Language
KVE1 240600Z 35018G23KT 09/M06 A299 RMK A01 T00921060  RH  034%=      5-min Rain = 0
KVE1 240601Z 35018KT 09/M06 A299 RMK A01 T00911060  RH  034%=      5-min Rain = 0
KVE1 240602Z 35016KT 09/M06 A2991 RMK A01 T00891060  RH  034%=      5-min Rain = 0
KVE1 240603Z 35015KT 09/M06 A2991 RMK A01 T00861060  RH  035%=      5-min Rain = 0
KVE1 240604Z 35015KT 08/M06 A2991 RMK A01 T00841060  RH  035%=      5-min Rain = 0
KVE1 240605Z 35016KT 08/M06 A2991 RMK A01 T00831060  RH  036%=      5-min Rain = 0
KVE1 240606Z 35018G24KT 08/M06 A2991 RMK A01 T00831060  RH  036%=      5-min Rain = 0
KVE1 240607Z 35017KT 08/M06 A2992 RMK A01 T00841060  RH  035%=      5-min Rain = 0
KVE1 240608Z 35017G22KT 08/M06 A2992 RMK A01 T00841059  RH  036%=      5-min Rain = 0
KVE1 240609Z 35021G28KT 08/M06 A2992 RMK A01 T00841057  RH  036%=      5-min Rain = 0
KVE1 240610Z 35018KT 09/M06 A2992 RMK A01 T00851056  RH  036%=      5-min Rain = 0
KVE1 240611Z 35018G23KT 09/M06 A2992 RMK A01 T00851056  RH  036%=      5-min Rain = 0
KVE1 240612Z 35022KT 09/M05 A2992 RMK A01 T00851054  RH  037%=      5-min Rain = 0
KVE1 240613Z 35020KT 09/M05 A2993 RMK A01 T00851053  RH  037%=      5-min Rain = 0
KVE1 240614Z 35019G25KT 09/M05 A2993 RMK A01 T00851053  RH  037%=      5-min Rain = 0
KVE1 240615Z 35019G25KT 08/M05 A2993 RMK A01 T00841052  RH  038%=      5-min Rain = 0
KVE1 240616Z 35024G30KT 08/M05 A2993 RMK A01 T00841051  RH  038%=      5-min Rain = 0
KVE1 240617Z 35020KT 08/M05 A2993 RMK A01 T00841051  RH  038%=      5-min Rain = 0
KVE1 240618Z 35022G29KT 08/M05 A2993 RMK A01 T00831051  RH  038%=      5-min Rain = 0
KVE1 240619Z 35024G29KT 08/M05 A2993 RMK A01 T00831051  RH  038%=      5-min Rain = 0
KVE1 240620Z 36021KT 08/M05 A2994 RMK A01 T00831050  RH  038%=      5-min Rain = 0
KVE1 240621Z 36019G24KT 08/M05 A2994 RMK A01 T00831050  RH  038%=      5-min Rain = 0
KVE1 240622Z 36020KT 08/M05 A2994 RMK A01 T00811051  RH  039%=      5-min Rain = 0
KVE1 240623Z 36018G24KT 08/M05 A2994 RMK A01 T00811050  RH  039%=      5-min Rain = 0
KVE1 240624Z 36019G24KT 08/M05 A2994 RMK A01 T00801050  RH  039%=      5-min Rain = 0
KVE1 240625Z 36020G25KT 08/M05 A2994 RMK A01 T00791050  RH  040%=      5-min Rain = 0
KVE1 240626Z 00021KT 08/M05 A2994 RMK A01 T00781050  RH  040%=      5-min Rain = 0
KVE1 240627Z 00019G25KT 08/M05 A2994 RMK A01 T00781050  RH  040%=      5-min Rain = 0
KVE1 240628Z 36019G24KT 08/M05 A2994 RMK A01 T00781050  RH  040%=      5-min Rain = 0
KVE1 240629Z 36018G25KT 08/M05 A2994 RMK A01 T00781050  RH  040%=      5-min Rain = 0
KVE1 240630Z 36019G26KT 08/M05 A2995 RMK A01 T00771050  RH  040%=      5-min Rain = 0
KVE1 240631Z 00018G23KT 08/M05 A2995 RMK A01 T00771050  RH  040%=      5-min Rain = 0
KVE1 240632Z 36019G27KT 08/M05 A2995 RMK A01 T00771050  RH  040%=      5-min Rain = 0
KVE1 240633Z 00016KT 08/M05 A2995 RMK A01 T00761050  RH  040%=      5-min Rain = 0
KVE1 240634Z 36017KT 08/M05 A2995 RMK A01 T00761050  RH  040%=      5-min Rain = 0
KVE1 240635Z 00018KT 08/M05 A2995 RMK A01 T00751050  RH  041%=      5-min Rain = 0
KVE1 240636Z 01018G24KT 08/M05 A2995 RMK A01 T00751050  RH  041%=      5-min Rain = 0
KVE1 240637Z 00017KT 08/M05 A2995 RMK A01 T00751050  RH  041%=      5-min Rain = 0
KVE1 240638Z 00019G24KT 07/M05 A2996 RMK A01 T00741050  RH  041%=      5-min Rain = 0
KVE1 240639Z 01022KT 07/M05 A2996 RMK A01 T00741050  RH  041%=      5-min Rain = 0
KVE1 240640Z 01020G25KT 08/M05 A2996 RMK A01 T00751050  RH  041%=      5-min Rain = 0
KVE1 240641Z 01016KT 08/M05 A2996 RMK A01 T00751050  RH  041%=      5-min Rain = 0
KVE1 240642Z 01016G21KT 07/M05 A2996 RMK A01 T00731050  RH  041%=      5-min Rain = 0
KVE1 240643Z 01019KT 07/M05 A2996 RMK A01 T00721050  RH  041%=      5-min Rain = 0
KVE1 240644Z 00021G28KT 07/M05 A2996 RMK A01 T00731050  RH  041%=      5-min Rain = 0
KVE1 240645Z 01021G26KT 07/M05 A2996 RMK A01 T00741050  RH  041%=      5-min Rain = 0
KVE1 240646Z 36022G30KT 08/M05 A2996 RMK A01 T00751050  RH  041%=      5-min Rain = 0
KVE1 240647Z 01023G28KT 08/M05 A2997 RMK A01 T00751050  RH  041%=      5-min Rain = 0
KVE1 240648Z 01020G25KT 08/M05 A2997 RMK A01 T00751050  RH  041%=      5-min Rain = 0
KVE1 240649Z 01019G26KT 07/M05 A2997 RMK A01 T00741050  RH  041%=      5-min Rain = 0
KVE1 240650Z 00018G29KT 07/M05 A2997 RMK A01 T00731050  RH  041%=      5-min Rain = 0
KVE1 240651Z 00015KT 07/M05 A2997 RMK A01 T00721050  RH  041%=      5-min Rain = 0
KVE1 240652Z 00015KT 07/M05 A2997 RMK A01 T00701051  RH  042%=      5-min Rain = 0
KVE1 240653Z 00014KT 07/M05 A2997 RMK A01 T00691050  RH  042%=      5-min Rain = 0
KVE1 240654Z 00015KT 07/M05 A2998 RMK A01 T00681051  RH  042%=      5-min Rain = 0
KVE1 240655Z 00012G17KT 07/M05 A2998 RMK A01 T00671050  RH  043%=      5-min Rain = 0
KVE1 240656Z 00014KT 07/M05 A2998 RMK A01 T00671050  RH  043%=      5-min Rain = 0
KVE1 240657Z 00016G21KT 07/M05 A2998 RMK A01 T00671050  RH  043%=      5-min Rain = 0
KVE1 240658Z 01015KT 07/M05 A2998 RMK A01 T00681050  RH  043%=      5-min Rain = 0
KVE1 240659Z 00015KT 07/M05 A2998 RMK A01 T00681050  RH  043%=      5-min Rain = 0
KVE1 240700Z 00013KT 07/M05 A2998 RMK A01 T00681050  RH  043%=      5-min Rain = 0
KVE1 240701Z 00015KT 07/M05 A2998 RMK A01 T00661050  RH  043%=      5-min Rain = 0
KVE1 240702Z 00014KT 07/M05 A2998 RMK A01 T00661050  RH  044%=      5-min Rain = 0
KVE1 240703Z 00016KT 07/M05 A2998 RMK A01 T00651050  RH  044%=      5-min Rain = 0
KVE1 240704Z 00016KT 07/M05 A2999 RMK A01 T00661050  RH  044%=      5-min Rain = 0
KVE1 240705Z 00016G21KT 07/M05 A2999 RMK A01 T00651050  RH  044%=      5-min Rain = 0
KVE1 240706Z 00017KT 07/M05 A2999 RMK A01 T00651049  RH  044%=      5-min Rain = 0
KVE1 240707Z 01017G23KT 07/M05 A2999 RMK A01 T00651049  RH  044%=      5-min Rain = 0
KVE1 240708Z 01019KT 07/M05 A2999 RMK A01 T00651049  RH  044%=      5-min Rain = 0
KVE1 240709Z 00020G27KT 07/M05 A2999 RMK A01 T00651049  RH  044%=      5-min Rain = 0
KVE1 240710Z 01022KT 07/M05 A2998 RMK A01 T00661049  RH  044%=      5-min Rain = 0
KVE1 240711Z 01022KT 07/M05 A2998 RMK A01 T00671048  RH  043%=      5-min Rain = 0
KVE1 240712Z 01020KT 07/M05 A2998 RMK A01 T00671049  RH  043%=      5-min Rain = 0
KVE1 240713Z 01018KT 07/M05 A2998 RMK A01 T00661049  RH  044%=      5-min Rain = 0
KVE1 240714Z 01017KT 06/M05 A2999 RMK A01 T00641049  RH  044%=      5-min Rain = 0
KVE1 240715Z 01019KT 06/M05 A2999 RMK A01 T00631049  RH  045%=      5-min Rain = 0
KVE1 240716Z 01018KT 06/M05 A2999 RMK A01 T00621048  RH  045%=      5-min Rain = 0
KVE1 240717Z 01018KT 06/M05 A2999 RMK A01 T00621048  RH  045%=      5-min Rain = 0
KVE1 240718Z 01017KT 06/M05 A2999 RMK A01 T00611048  RH  045%=      5-min Rain = 0
KVE1 240719Z 01016G21KT 06/M05 A2999 RMK A01 T00611048  RH  046%=      5-min Rain = 0
KVE1 240720Z 01016KT 06/M05 A2999 RMK A01 T00611048  RH  046%=      5-min Rain = 0
KVE1 240721Z 01015G21KT 06/M05 A2999 RMK A01 T00601048  RH  046%=      5-min Rain = 0
KVE1 240722Z 01015KT 06/M05 A30 RMK A01 T00591048  RH  046%=      5-min Rain = 0
KVE1 240723Z 01015KT 06/M05 A30 RMK A01 T00591048  RH  046%=      5-min Rain = 0
KVE1 240724Z 01016KT 06/M05 A30 RMK A01 T00591048  RH  046%=      5-min Rain = 0
KVE1 240725Z 01014KT 06/M05 A30 RMK A01 T00591048  RH  046%=      5-min Rain = 0
KVE1 240726Z 01014KT 06/M05 A30 RMK A01 T00581048  RH  046%=      5-min Rain = 0
KVE1 240727Z 01015KT 06/M05 A30 RMK A01 T00581048  RH  047%=      5-min Rain = 0
KVE1 240728Z 01016KT 06/M05 A30 RMK A01 T00571048  RH  047%=      5-min Rain = 0
KVE1 240729Z 01015KT 06/M05 A3001 RMK A01 T00571048  RH  047%=      5-min Rain = 0
KVE1 240730Z 00015KT 06/M05 A3001 RMK A01 T00571048  RH  047%=      5-min Rain = 0
KVE1 240731Z 00015KT 06/M05 A3001 RMK A01 T00571048  RH  047%=      5-min Rain = 0
KVE1 240732Z 00013KT 06/M05 A3001 RMK A01 T00561048  RH  047%=      5-min Rain = 0
KVE1 240733Z 00014KT 06/M05 A3001 RMK A01 T00551048  RH  047%=      5-min Rain = 0
KVE1 240734Z 01014G19KT 06/M05 A3001 RMK A01 T00551048  RH  048%=      5-min Rain = 0
KVE1 240735Z 01017KT 06/M05 A3001 RMK A01 T00551047  RH  048%=      5-min Rain = 0
KVE1 240736Z 01016G21KT 06/M05 A3001 RMK A01 T00561046  RH  048%=      5-min Rain = 0
KVE1 240737Z 00017G23KT 06/M05 A3001 RMK A01 T00571046  RH  047%=      5-min Rain = 0
KVE1 240738Z 01017KT 06/M05 A3001 RMK A01 T00581047  RH  047%=      5-min Rain = 0
KVE1 240739Z 00016G21KT 06/M05 A3001 RMK A01 T00581047  RH  047%=      5-min Rain = 0
KVE1 240740Z 00015KT 06/M05 A3001 RMK A01 T00571047  RH  047%=      5-min Rain = 0
KVE1 240741Z 01017KT 06/M05 A3001 RMK A01 T00561047  RH  047%=      5-min Rain = 0
KVE1 240742Z 01017G22KT 06/M05 A3001 RMK A01 T00561046  RH  048%=      5-min Rain = 0
KVE1 240743Z 01019G24KT 06/M05 A3001 RMK A01 T00571046  RH  047%=      5-min Rain = 0
KVE1 240744Z 01020G26KT 06/M05 A3001 RMK A01 T00581045  RH  047%=      5-min Rain = 0
KVE1 240745Z 01019G25KT 06/M05 A3001 RMK A01 T00591046  RH  047%=      5-min Rain = 0
KVE1 240746Z 01021KT 06/M05 A3001 RMK A01 T00591046  RH  047%=      5-min Rain = 0
KVE1 240747Z 01019KT 06/M05 A3002 RMK A01 T00591045  RH  047%=      5-min Rain = 0
KVE1 240748Z 01017KT 06/M05 A3002 RMK A01 T00591045  RH  047%=      5-min Rain = 0
KVE1 240749Z 01016KT 06/M05 A3002 RMK A01 T00581045  RH  048%=      5-min Rain = 0
KVE1 240750Z 01017KT 06/M05 A3002 RMK A01 T00571045  RH  048%=      5-min Rain = 0
KVE1 240751Z 01018G25KT 06/M05 A3002 RMK A01 T00561045  RH  048%=      5-min Rain = 0
KVE1 240752Z 01023G28KT 06/M04 A3002 RMK A01 T00561044  RH  048%=      5-min Rain = 0
KVE1 240753Z 01019G27KT 06/M04 A3002 RMK A01 T00581044  RH  048%=      5-min Rain = 0
KVE1 240754Z 01022KT 06/M04 A3002 RMK A01 T00581044  RH  048%=      5-min Rain = 0
KVE1 240755Z 01019G24KT 06/M04 A3002 RMK A01 T00581044  RH  048%=      5-min Rain = 0
KVE1 240756Z 01018KT 06/M04 A3002 RMK A01 T00571044  RH  048%=      5-min Rain = 0
KVE1 240757Z 01019G24KT 06/M04 A3002 RMK A01 T00561044  RH  049%=      5-min Rain = 0
KVE1 240758Z 01017KT 06/M04 A3002 RMK A01 T00561044  RH  049%=      5-min Rain = 0
KVE1 240759Z 01015KT 06/M04 A3002 RMK A01 T00551044  RH  049%=      5-min Rain = 0
KVE1 240800Z 01016KT 05/M04 A3002 RMK A01 T00541044  RH  049%=      5-min Rain = 0
KVE1 240801Z 01016G22KT 05/M04 A3002 RMK A01 T00541044  RH  049%=      5-min Rain = 0
KVE1 240802Z 01019G24KT 05/M04 A3002 RMK A01 T00531044  RH  050%=      5-min Rain = 0
KVE1 240803Z 01020G26KT 05/M04 A3002 RMK A01 T00541044  RH  049%=      5-min Rain = 0
KVE1 240804Z 02021G26KT 06/M04 A3003 RMK A01 T00551044  RH  049%=      5-min Rain = 0
KVE1 240805Z 02019G24KT 06/M04 A3003 RMK A01 T00561044  RH  049%=      5-min Rain = 0
KVE1 240806Z 02021KT 06/M04 A3003 RMK A01 T00561044  RH  049%=      5-min Rain = 0
KVE1 240807Z 01018KT 06/M04 A3003 RMK A01 T00551044  RH  049%=      5-min Rain = 0
KVE1 240808Z 01015G20KT 06/M04 A3003 RMK A01 T00551044  RH  049%=      5-min Rain = 0
KVE1 240809Z 01017KT 05/M04 A3003 RMK A01 T00541044  RH  049%=      5-min Rain = 0
KVE1 240810Z 01018G23KT 05/M04 A3003 RMK A01 T00531044  RH  050%=      5-min Rain = 0
KVE1 240811Z 01017G22KT 05/M04 A3003 RMK A01 T00531044  RH  049%=      5-min Rain = 0
KVE1 240812Z 01019KT 05/M04 A3003 RMK A01 T00521044  RH  050%=      5-min Rain = 0
KVE1 240813Z 01016G22KT 05/M04 A3003 RMK A01 T00521044  RH  050%=      5-min Rain = 0
KVE1 240814Z 01018G23KT 05/M05 A3003 RMK A01 T00521045  RH  050%=      5-min Rain = 0
KVE1 240815Z 01017KT 05/M05 A3003 RMK A01 T00521045  RH  050%=      5-min Rain = 0
KVE1 240816Z 01015G20KT 05/M05 A3003 RMK A01 T00511045  RH  050%=      5-min Rain = 0
KVE1 240817Z 01013KT 05/M05 A3003 RMK A01 T00501045  RH  050%=      5-min Rain = 0
KVE1 240818Z 01017G25KT 05/M05 A3003 RMK A01 T00491045  RH  051%=      5-min Rain = 0
KVE1 240819Z 01018KT 05/M05 A3003 RMK A01 T00491045  RH  051%=      5-min Rain = 0
KVE1 240820Z 01017KT 05/M05 A3003 RMK A01 T00501045  RH  050%=      5-min Rain = 0
KVE1 240821Z 01016G22KT 05/M05 A3003 RMK A01 T00491045  RH  050%=      5-min Rain = 0
KVE1 240822Z 02017KT 05/M05 A3003 RMK A01 T00491045  RH  051%=      5-min Rain = 0
KVE1 240823Z 01015G20KT 05/M05 A3003 RMK A01 T00491045  RH  051%=      5-min Rain = 0
KVE1 240824Z 01016KT 05/M05 A3003 RMK A01 T00481045  RH  051%=      5-min Rain = 0
KVE1 240825Z 01018G23KT 05/M05 A3003 RMK A01 T00481045  RH  051%=      5-min Rain = 0
KVE1 240826Z 01017KT 05/M05 A3003 RMK A01 T00481045  RH  051%=      5-min Rain = 0
KVE1 240827Z 01017KT 05/M05 A3003 RMK A01 T00481045  RH  051%=      5-min Rain = 0
KVE1 240828Z 01017KT 05/M05 A3003 RMK A01 T00471045  RH  051%=      5-min Rain = 0
KVE1 240829Z 01015KT 05/M05 A3003 RMK A01 T00471045  RH  052%=      5-min Rain = 0
KVE1 240830Z 01014KT 05/M05 A3003 RMK A01 T00461045  RH  052%=      5-min Rain = 0
KVE1 240831Z 01013KT 04/M05 A3003 RMK A01 T00441045  RH  052%=      5-min Rain = 0
KVE1 240832Z 01014G22KT 04/M05 A3003 RMK A01 T00421045  RH  053%=      5-min Rain = 0
KVE1 240833Z 01015KT 04/M05 A3003 RMK A01 T00411045  RH  053%=      5-min Rain = 0
KVE1 240834Z 01014G19KT 04/M04 A3003 RMK A01 T00421044  RH  054%=      5-min Rain = 0
KVE1 240835Z 01019G24KT 04/M04 A3003 RMK A01 T00421044  RH  054%=      5-min Rain = 0
KVE1 240836Z 01019G24KT 04/M04 A3003 RMK A01 T00431044  RH  053%=      5-min Rain = 0
KVE1 240837Z 01018KT 04/M04 A3003 RMK A01 T00441044  RH  053%=      5-min Rain = 0
KVE1 240838Z 01018G23KT 05/M04 A3003 RMK A01 T00451044  RH  052%=      5-min Rain = 0
KVE1 240839Z 01017KT 04/M04 A3003 RMK A01 T00441044  RH  053%=      5-min Rain = 0
KVE1 240840Z 01018G24KT 04/M05 A3003 RMK A01 T00441045  RH  053%=      5-min Rain = 0
KVE1 240841Z 01020G26KT 04/M04 A3003 RMK A01 T00441044  RH  053%=      5-min Rain = 0
KVE1 240842Z 01020KT 05/M05 A3003 RMK A01 T00451045  RH  052%=      5-min Rain = 0
KVE1 240843Z 01020G28KT 04/M05 A3003 RMK A01 T00441045  RH  052%=      5-min Rain = 0
KVE1 240844Z 01019G24KT 04/M05 A3003 RMK A01 T00441045  RH  052%=      5-min Rain = 0
KVE1 240845Z 01020G25KT 04/M05 A3003 RMK A01 T00441045  RH  052%=      5-min Rain = 0
KVE1 240846Z 01020G26KT 04/M05 A3003 RMK A01 T00441045  RH  052%=      5-min Rain = 0
KVE1 240847Z 01019G24KT 04/M05 A3003 RMK A01 T00441045  RH  052%=      5-min Rain = 0
KVE1 240848Z 01018G24KT 04/M05 A3003 RMK A01 T00431045  RH  053%=      5-min Rain = 0
KVE1 240849Z 01020G26KT 04/M05 A3003 RMK A01 T00421045  RH  053%=      5-min Rain = 0
KVE1 240850Z 01018KT 04/M05 A3003 RMK A01 T00421045  RH  053%=      5-min Rain = 0
KVE1 240851Z 01019KT 04/M05 A3003 RMK A01 T00411045  RH  053%=      5-min Rain = 0
KVE1 240852Z 01019G24KT 04/M05 A3004 RMK A01 T00411045  RH  053%=      5-min Rain = 0
KVE1 240853Z 01018G24KT 04/M05 A3004 RMK A01 T00411045  RH  053%=      5-min Rain = 0
KVE1 240854Z 01019G24KT 04/M05 A3004 RMK A01 T00411046  RH  053%=      5-min Rain = 0
KVE1 240855Z 01017G23KT 04/M05 A3004 RMK A01 T00411045  RH  053%=      5-min Rain = 0
KVE1 240856Z 01016G22KT 04/M05 A3004 RMK A01 T00401046  RH  054%=      5-min Rain = 0
KVE1 240857Z 01017KT 04/M05 A3004 RMK A01 T00391046  RH  054%=      5-min Rain = 0
KVE1 240858Z 01016KT 04/M05 A3004 RMK A01 T00391046  RH  054%=      5-min Rain = 0
KVE1 240859Z 01017G23KT 04/M05 A3004 RMK A01 T00391046  RH  054%=      5-min Rain = 0
KVE1 240900Z 01017KT 04/M05 A3004 RMK A01 T00391046  RH  054%=      5-min Rain = 0
KVE1 240901Z 01017KT 04/M05 A3004 RMK A01 T00391046  RH  054%=      5-min Rain = 0
KVE1 240902Z 01015G22KT 04/M05 A3004 RMK A01 T00381046  RH  054%=      5-min Rain = 0
KVE1 240903Z 01017KT 04/M05 A3004 RMK A01 T00381046  RH  054%=      5-min Rain = 0
KVE1 240904Z 01018KT 04/M05 A3004 RMK A01 T00381046  RH  054%=      5-min Rain = 0
KVE1 240905Z 01017G24KT 04/M05 A3003 RMK A01 T00381046  RH  054%=      5-min Rain = 0
KVE1 240906Z 01019G25KT 04/M05 A3003 RMK A01 T00381046  RH  054%=      5-min Rain = 0
KVE1 240907Z 01019KT 04/M05 A3003 RMK A01 T00381046  RH  054%=      5-min Rain = 0
KVE1 240908Z 01016KT 04/M05 A3003 RMK A01 T00381046  RH  054%=      5-min Rain = 0
KVE1 240909Z 01018G25KT 04/M05 A3003 RMK A01 T00371046  RH  054%=      5-min Rain = 0
KVE1 240910Z 01018G25KT 04/M05 A3004 RMK A01 T00371046  RH  054%=      5-min Rain = 0
KVE1 240911Z 01018G24KT 04/M05 A3004 RMK A01 T00371046  RH  054%=      5-min Rain = 0
KVE1 240912Z 01016G22KT 04/M05 A3004 RMK A01 T00381046  RH  054%=      5-min Rain = 0
KVE1 240913Z 01016G22KT 04/M05 A3004 RMK A01 T00361046  RH  055%=      5-min Rain = 0
KVE1 240914Z 01016KT 04/M05 A3004 RMK A01 T00351046  RH  055%=      5-min Rain = 0
KVE1 240915Z 01018G23KT 04/M05 A3004 RMK A01 T00351046  RH  055%=      5-min Rain = 0
KVE1 240916Z 01017KT 04/M05 A3004 RMK A01 T00351045  RH  055%=      5-min Rain = 0
KVE1 240917Z 01019KT 04/M05 A3004 RMK A01 T00351046  RH  055%=      5-min Rain = 0
KVE1 240918Z 02018KT 04/M05 A3004 RMK A01 T00361046  RH  055%=      5-min Rain = 0
KVE1 240919Z 02018KT 04/M05 A3004 RMK A01 T00361046  RH  055%=      5-min Rain = 0
KVE1 240920Z 02016KT 04/M05 A3004 RMK A01 T00361046  RH  055%=      5-min Rain = 0
KVE1 240921Z 01016G21KT 04/M05 A3004 RMK A01 T00351046  RH  055%=      5-min Rain = 0
KVE1 240922Z 01014KT 03/M05 A3004 RMK A01 T00341046  RH  056%=      5-min Rain = 0
KVE1 240923Z 01013KT 03/M05 A3004 RMK A01 T00331046  RH  056%=      5-min Rain = 0
KVE1 240924Z 01015KT 03/M05 A3004 RMK A01 T00321046  RH  057%=      5-min Rain = 0
KVE1 240925Z 01014KT 03/M05 A3004 RMK A01 T00321046  RH  057%=      5-min Rain = 0
KVE1 240926Z 01014G19KT 03/M05 A3004 RMK A01 T00321046  RH  057%=      5-min Rain = 0
KVE1 240927Z 01015KT 03/M05 A3004 RMK A01 T00321046  RH  057%=      5-min Rain = 0
KVE1 240928Z 01016KT 03/M05 A3004 RMK A01 T00321046  RH  057%=      5-min Rain = 0
KVE1 240929Z 01015G20KT 03/M05 A3005 RMK A01 T00321046  RH  056%=      5-min Rain = 0
KVE1 240930Z 01013G18KT 03/M05 A3005 RMK A01 T00321046  RH  056%=      5-min Rain = 0
KVE1 240931Z 01013KT 03/M05 A3005 RMK A01 T00321047  RH  056%=      5-min Rain = 0
KVE1 240932Z 01013KT 03/M05 A3005 RMK A01 T00311047  RH  057%=      5-min Rain = 0
KVE1 240933Z 01014G19KT 03/M05 A3005 RMK A01 T00301048  RH  057%=      5-min Rain = 0
KVE1 240934Z 01014KT 03/M05 A3005 RMK A01 T00301048  RH  056%=      5-min Rain = 0
KVE1 240935Z 00013KT 03/M05 A3005 RMK A01 T00301048  RH  056%=      5-min Rain = 0
KVE1 240936Z 00014KT 03/M05 A3005 RMK A01 T00301048  RH  056%=      5-min Rain = 0
KVE1 240937Z 01013KT 03/M05 A3005 RMK A01 T00301048  RH  057%=      5-min Rain = 0
KVE1 240938Z 01012KT 03/M05 A3005 RMK A01 T00301048  RH  057%=      5-min Rain = 0
KVE1 240939Z 01013KT 03/M05 A3005 RMK A01 T00291048  RH  057%=      5-min Rain = 0
KVE1 240940Z 01014G19KT 03/M05 A3006 RMK A01 T00281048  RH  057%=      5-min Rain = 0
KVE1 240941Z 01012KT 03/M05 A3006 RMK A01 T00281048  RH  057%=      5-min Rain = 0
KVE1 240942Z 01014KT 03/M05 A3006 RMK A01 T00291049  RH  057%=      5-min Rain = 0
KVE1 240943Z 00014KT 03/M05 A3006 RMK A01 T00291049  RH  057%=      5-min Rain = 0
KVE1 240944Z 36012KT 03/M05 A3006 RMK A01 T00291049  RH  057%=      5-min Rain = 0
KVE1 240945Z 00012KT 03/M05 A3006 RMK A01 T00291049  RH  057%=      5-min Rain = 0
KVE1 240946Z 36010KT 03/M05 A3006 RMK A01 T00281050  RH  057%=      5-min Rain = 0
KVE1 240947Z 36011KT 03/M05 A3006 RMK A01 T00261050  RH  057%=      5-min Rain = 0
KVE1 240948Z 35012KT 03/M05 A3006 RMK A01 T00251049  RH  058%=      5-min Rain = 0
KVE1 240949Z 35012KT 03/M05 A3006 RMK A01 T00251049  RH  058%=      5-min Rain = 0
KVE1 240950Z 35012KT 02/M05 A3007 RMK A01 T00241049  RH  058%=      5-min Rain = 0
KVE1 240951Z 35012KT 02/M05 A3007 RMK A01 T00241049  RH  058%=      5-min Rain = 0
KVE1 240952Z 35011KT 02/M05 A3007 RMK A01 T00241049  RH  059%=      5-min Rain = 0
KVE1 240953Z 35012KT 02/M05 A3007 RMK A01 T00241049  RH  059%=      5-min Rain = 0
KVE1 240954Z 35012KT 02/M05 A3007 RMK A01 T00231049  RH  059%=      5-min Rain = 0
KVE1 240955Z 36013KT 02/M05 A3007 RMK A01 T00231049  RH  059%=      5-min Rain = 0
KVE1 240956Z 36012KT 02/M05 A3007 RMK A01 T00231049  RH  059%=      5-min Rain = 0
KVE1 240957Z 36012KT 02/M05 A3007 RMK A01 T00231048  RH  059%=      5-min Rain = 0
KVE1 240958Z 35013KT 02/M05 A3007 RMK A01 T00231048  RH  059%=      5-min Rain = 0
KVE1 240959Z 35012KT 02/M05 A3007 RMK A01 T00231048  RH  059%=      5-min Rain = 0
KVE1 241000Z 35012KT 02/M05 A3007 RMK A01 T00231048  RH  059%=      5-min Rain = 0
KVE1 241001Z 35012KT 02/M05 A3007 RMK A01 T00221048  RH  060%=      5-min Rain = 0
KVE1 241002Z 35011KT 02/M05 A3007 RMK A01 T00211049  RH  060%=      5-min Rain = 0
KVE1 241003Z 36012KT 02/M05 A3007 RMK A01 T00201049  RH  060%=      5-min Rain = 0
KVE1 241004Z 35011KT 02/M05 A3007 RMK A01 T00191049  RH  061%=      5-min Rain = 0
KVE1 241005Z 35013KT 02/M05 A3007 RMK A01 T00191048  RH  061%=      5-min Rain = 0
KVE1 241006Z 36012KT 02/M05 A3007 RMK A01 T00191048  RH  061%=      5-min Rain = 0
KVE1 241007Z 36012KT 02/M05 A3007 RMK A01 T00191048  RH  061%=      5-min Rain = 0
KVE1 241008Z 35012KT 02/M05 A3007 RMK A01 T00191048  RH  061%=      5-min Rain = 0
KVE1 241009Z 36012KT 02/M05 A3007 RMK A01 T00191048  RH  061%=      5-min Rain = 0
KVE1 241010Z 35012KT 02/M05 A3007 RMK A01 T00191048  RH  061%=      5-min Rain = 0
KVE1 241011Z 36013KT 02/M05 A3007 RMK A01 T00181048  RH  061%=      5-min Rain = 0
KVE1 241012Z 36012KT 02/M05 A3007 RMK A01 T00181049  RH  061%=      5-min Rain = 0
KVE1 241013Z 36014KT 02/M05 A3007 RMK A01 T00191048  RH  061%=      5-min Rain = 0
KVE1 241014Z 36013KT 02/M05 A3007 RMK A01 T00191048  RH  061%=      5-min Rain = 0
KVE1 241015Z 36013KT 02/M05 A3007 RMK A01 T00191049  RH  061%=      5-min Rain = 0
KVE1 241016Z 35013KT 02/M05 A3007 RMK A01 T00191049  RH  061%=      5-min Rain = 0
KVE1 241017Z 35013KT 02/M05 A3007 RMK A01 T00181049  RH  061%=      5-min Rain = 0
KVE1 241018Z 36012KT 02/M05 A3007 RMK A01 T00181049  RH  061%=      5-min Rain = 0
KVE1 241019Z 36012KT 02/M05 A3007 RMK A01 T00181049  RH  061%=      5-min Rain = 0
KVE1 241020Z 35012KT 02/M05 A3007 RMK A01 T00161050  RH  061%=      5-min Rain = 0
KVE1 241021Z 36012KT 02/M05 A3007 RMK A01 T00161050  RH  062%=      5-min Rain = 0
KVE1 241022Z 36011KT 02/M05 A3007 RMK A01 T00151050  RH  062%=      5-min Rain = 0
KVE1 241023Z 36011KT 01/M05 A3007 RMK A01 T00141050  RH  062%=      5-min Rain = 0
KVE1 241024Z 36012KT 01/M05 A3007 RMK A01 T00141050  RH  062%=      5-min Rain = 0
KVE1 241025Z 36012KT 01/M05 A3007 RMK A01 T00141050  RH  063%=      5-min Rain = 0
KVE1 241026Z 36012KT 01/M05 A3007 RMK A01 T00141050  RH  063%=      5-min Rain = 0
KVE1 241027Z 36013KT 02/M05 A3007 RMK A01 T00151049  RH  062%=      5-min Rain = 0
KVE1 241028Z 36013KT 02/M05 A3007 RMK A01 T00151049  RH  062%=      5-min Rain = 0
KVE1 241029Z 36013KT 02/M05 A3007 RMK A01 T00151050  RH  062%=      5-min Rain = 0
KVE1 241030Z 36013KT 02/M05 A3007 RMK A01 T00161049  RH  062%=      5-min Rain = 0
KVE1 241031Z 35013KT 02/M05 A3007 RMK A01 T00161050  RH  062%=      5-min Rain = 0
KVE1 241032Z 35012KT 02/M05 A3007 RMK A01 T00171050  RH  061%=      5-min Rain = 0
KVE1 241033Z 35011KT 02/M05 A3007 RMK A01 T00161050  RH  061%=      5-min Rain = 0
KVE1 241034Z 35010KT 02/M05 A3008 RMK A01 T00151050  RH  062%=      5-min Rain = 0
KVE1 241035Z 35011KT 01/M05 A3008 RMK A01 T00141051  RH  062%=      5-min Rain = 0
KVE1 241036Z 35011KT 01/M05 A3008 RMK A01 T00131051  RH  063%=      5-min Rain = 0
KVE1 241037Z 35012KT 01/M05 A3008 RMK A01 T00131050  RH  063%=      5-min Rain = 0
KVE1 241038Z 35012KT 01/M05 A3008 RMK A01 T00131050  RH  063%=      5-min Rain = 0
KVE1 241039Z 35012KT 01/M05 A3008 RMK A01 T00131050  RH  063%=      5-min Rain = 0
KVE1 241040Z 35012KT 01/M05 A3008 RMK A01 T00141050  RH  062%=      5-min Rain = 0
KVE1 241041Z 35011KT 01/M05 A3008 RMK A01 T00141051  RH  062%=      5-min Rain = 0
KVE1 241042Z 35011KT 01/M05 A3008 RMK A01 T00131051  RH  062%=      5-min Rain = 0
KVE1 241043Z 35012KT 01/M05 A3008 RMK A01 T00121051  RH  063%=      5-min Rain = 0
KVE1 241044Z 35012KT 01/M05 A3008 RMK A01 T00121051  RH  063%=      5-min Rain = 0
KVE1 241045Z 35012KT 01/M05 A3008 RMK A01 T00121052  RH  063%=      5-min Rain = 0
KVE1 241046Z 34013KT 01/M05 A3008 RMK A01 T00111052  RH  063%=      5-min Rain = 0
KVE1 241047Z 35013KT 01/M05 A3008 RMK A01 T00111052  RH  063%=      5-min Rain = 0
KVE1 241048Z 35012KT 01/M05 A3008 RMK A01 T00111052  RH  063%=      5-min Rain = 0
KVE1 241049Z 35012KT 01/M05 A3008 RMK A01 T00101052  RH  063%=      5-min Rain = 0
KVE1 241050Z 35012G17KT 01/M05 A3008 RMK A01 T00091053  RH  063%=      5-min Rain = 0
KVE1 241051Z 35012KT 01/M05 A3008 RMK A01 T00081053  RH  064%=      5-min Rain = 0
KVE1 241052Z 35012KT 01/M05 A3008 RMK A01 T00091053  RH  064%=      5-min Rain = 0
KVE1 241053Z 35011KT 01/M05 A3008 RMK A01 T00091053  RH  063%=      5-min Rain = 0
KVE1 241054Z 35012KT 01/M05 A3009 RMK A01 T00081053  RH  063%=      5-min Rain = 0
KVE1 241055Z 35011KT 01/M05 A3009 RMK A01 T00081053  RH  063%=      5-min Rain = 0
KVE1 241056Z 35011KT 01/M05 A3009 RMK A01 T00081054  RH  063%=      5-min Rain = 0
KVE1 241057Z 35011KT 01/M05 A3009 RMK A01 T00071054  RH  064%=      5-min Rain = 0
KVE1 241058Z 35010KT 01/M06 A3009 RMK A01 T00061055  RH  064%=      5-min Rain = 0
KVE1 241059Z 35010KT 01/M06 A3009 RMK A01 T00051055  RH  064%=      5-min Rain = 0
KVE1 241100Z 35011KT 00/M06 A3009 RMK A01 T00041055  RH  065%=      5-min Rain = 0
KVE1 241101Z 35011KT 00/M05 A3009 RMK A01 T00041054  RH  065%=      5-min Rain = 0
KVE1 241102Z 35011KT 01/M05 A3009 RMK A01 T00051054  RH  065%=      5-min Rain = 0
KVE1 241103Z 35011KT 01/M05 A3009 RMK A01 T00051054  RH  065%=      5-min Rain = 0
KVE1 241104Z 35012KT 01/M06 A3009 RMK A01 T00051055  RH  064%=      5-min Rain = 0
KVE1 241105Z 35010KT 01/M06 A3009 RMK A01 T00061055  RH  064%=      5-min Rain = 0
KVE1 241106Z 35011KT 01/M06 A3009 RMK A01 T00061055  RH  063%=      5-min Rain = 0
KVE1 241107Z 35010KT 01/M06 A3009 RMK A01 T00051056  RH  064%=      5-min Rain = 0
KVE1 241108Z 35011KT 00/M06 A301 RMK A01 T00041056  RH  064%=      5-min Rain = 0
KVE1 241109Z 35010KT 00/M06 A301 RMK A01 T00041057  RH  064%=      5-min Rain = 0
KVE1 241110Z 35011KT 00/M06 A301 RMK A01 T00041057  RH  063%=      5-min Rain = 0
KVE1 241111Z 35010KT 00/M06 A301 RMK A01 T00041057  RH  063%=      5-min Rain = 0
KVE1 241112Z 35010KT 00/M06 A301 RMK A01 T00041057  RH  063%=      5-min Rain = 0
KVE1 241113Z 35011KT 00/M06 A301 RMK A01 T00041058  RH  063%=      5-min Rain = 0
KVE1 241114Z 35010KT 01/M06 A301 RMK A01 T00051058  RH  063%=      5-min Rain = 0
KVE1 241115Z 35010KT 00/M06 A301 RMK A01 T00041058  RH  063%=      5-min Rain = 0
KVE1 241116Z 34010KT 00/M06 A301 RMK A01 T00031059  RH  063%=      5-min Rain = 0
KVE1 241117Z 34011KT 00/M06 A301 RMK A01 T00021058  RH  064%=      5-min Rain = 0
KVE1 241118Z 34011KT 00/M06 A301 RMK A01 T00011058  RH  064%=      5-min Rain = 0
KVE1 241119Z 34012KT 00/M06 A301 RMK A01 T00011058  RH  065%=      5-min Rain = 0
KVE1 241120Z 34012KT 00/M06 A301 RMK A01 T00011057  RH  065%=      5-min Rain = 0
KVE1 241121Z 35011KT 00/M06 A301 RMK A01 T00011058  RH  065%=      5-min Rain = 0
KVE1 241122Z 35012KT 00/06 A301 RMK A01 T00000-58  RH  065%=      5-min Rain = 0
KVE1 241123Z 35011KT 00/06 A301 RMK A01 T00000-58  RH  065%=      5-min Rain = 0
KVE1 241124Z 34011KT 00/06 A301 RMK A01 T00-00-58  RH  065%=      5-min Rain = 0
KVE1 241125Z 34011KT M00/M06 A301 RMK A01 T10011058  RH  065%=      5-min Rain = 0
KVE1 241126Z 34011KT M00/M06 A3011 RMK A01 T10011058  RH  066%=      5-min Rain = 0
KVE1 241127Z 34012KT M00/M06 A3011 RMK A01 T10011058  RH  066%=      5-min Rain = 0
KVE1 241128Z 34012KT M00/M06 A3011 RMK A01 T10011057  RH  066%=      5-min Rain = 0
KVE1 241129Z 35012KT M00/M06 A3011 RMK A01 T10011058  RH  066%=      5-min Rain = 0
KVE1 241130Z 34011KT M00/M06 A3011 RMK A01 T10011058  RH  066%=      5-min Rain = 0
KVE1 241131Z 34013KT M00/M06 A3011 RMK A01 T10021058  RH  066%=      5-min Rain = 0
KVE1 241132Z 35012KT M00/M06 A3011 RMK A01 T10021058  RH  066%=      5-min Rain = 0
KVE1 241133Z 35012KT M00/M06 A3011 RMK A01 T10021059  RH  065%=      5-min Rain = 0
KVE1 241134Z 35013KT M00/M06 A3011 RMK A01 T10021059  RH  065%=      5-min Rain = 0
KVE1 241135Z 35012KT M00/M06 A3011 RMK A01 T10011059  RH  065%=      5-min Rain = 0
KVE1 241136Z 34012KT 00/06 A3011 RMK A01 T00-00-60  RH  064%=      5-min Rain = 0
KVE1 241137Z 34012KT 00/06 A3011 RMK A01 T00-00-60  RH  064%=      5-min Rain = 0
KVE1 241138Z 34012KT M00/M06 A3011 RMK A01 T10011061  RH  064%=      5-min Rain = 0
KVE1 241139Z 34011KT M00/M06 A3011 RMK A01 T10031061  RH  065%=      5-min Rain = 0
KVE1 241140Z 34011KT M00/M06 A3011 RMK A01 T10041061  RH  065%=      5-min Rain = 0
KVE1 241141Z 34011KT M00/M06 A3011 RMK A01 T10041061  RH  065%=      5-min Rain = 0
KVE1 241142Z 34011KT M00/M06 A3011 RMK A01 T10041062  RH  065%=      5-min Rain = 0
KVE1 241143Z 34011KT M00/M06 A3011 RMK A01 T10041062  RH  065%=      5-min Rain = 0
KVE1 241144Z 34011KT M00/M06 A3011 RMK A01 T10041062  RH  065%=      5-min Rain = 0
KVE1 241145Z 34011KT M00/M06 A3011 RMK A01 T10041062  RH  065%=      5-min Rain = 0
KVE1 241146Z 34011KT M00/M06 A3011 RMK A01 T10041063  RH  065%=      5-min Rain = 0
KVE1 241147Z 34011KT M00/M06 A3011 RMK A01 T10041063  RH  065%=      5-min Rain = 0
KVE1 241148Z 34011KT M01/M06 A3011 RMK A01 T10051063  RH  065%=      5-min Rain = 0
KVE1 241149Z 34011KT M01/M06 A3011 RMK A01 T10051063  RH  065%=      5-min Rain = 0
KVE1 241150Z 34010KT M01/M06 A3011 RMK A01 T10051063  RH  065%=      5-min Rain = 0
KVE1 241151Z 34010KT M00/M06 A3011 RMK A01 T10041063  RH  064%=      5-min Rain = 0
KVE1 241152Z 34010KT M01/M06 A3011 RMK A01 T10051064  RH  065%=      5-min Rain = 0
KVE1 241153Z 34010KT M01/M06 A3011 RMK A01 T10061064  RH  065%=      5-min Rain = 0
KVE1 241154Z 34010KT M01/M06 A3011 RMK A01 T10061064  RH  065%=      5-min Rain = 0
KVE1 241155Z 34010KT M01/M06 A3011 RMK A01 T10061064  RH  065%=      5-min Rain = 0
KVE1 241156Z 34010KT M01/M06 A3012 RMK A01 T10061064  RH  065%=      5-min Rain = 0
KVE1 241157Z 34010KT M01/M06 A3012 RMK A01 T10061064  RH  065%=      5-min Rain = 0
KVE1 241158Z 34010KT M01/M06 A3012 RMK A01 T10071064  RH  065%=      5-min Rain = 0
KVE1 241159Z 34011KT M01/M06 A3012 RMK A01 T10071064  RH  065%=      5-min Rain = 0
KVE1 241200Z 34012KT M01/M06 A3012 RMK A01 T10071064  RH  065%=      5-min Rain = 0
KVE1 241201Z 34011KT M01/M06 A3012 RMK A01 T10061064  RH  065%=      5-min Rain = 0
KVE1 241202Z 34012KT M01/M06 A3012 RMK A01 T10061064  RH  065%=      5-min Rain = 0
KVE1 241203Z 34012KT M01/M07 A3012 RMK A01 T10061065  RH  065%=      5-min Rain = 0
KVE1 241204Z 34012KT M01/M07 A3012 RMK A01 T10061065  RH  064%=      5-min Rain = 0
KVE1 241205Z 34011KT M01/M07 A3012 RMK A01 T10061065  RH  064%=      5-min Rain = 0
KVE1 241206Z 34012KT M01/M07 A3012 RMK A01 T10061065  RH  064%=      5-min Rain = 0
KVE1 241207Z 34012KT M01/M07 A3012 RMK A01 T10061065  RH  064%=      5-min Rain = 0
KVE1 241208Z 34012KT M01/M07 A3012 RMK A01 T10061065  RH  064%=      5-min Rain = 0
KVE1 241209Z 34012KT M01/M07 A3012 RMK A01 T10061065  RH  065%=      5-min Rain = 0
KVE1 241210Z 34012KT M01/M07 A3012 RMK A01 T10061065  RH  064%=      5-min Rain = 0
KVE1 241211Z 35012KT M01/M07 A3013 RMK A01 T10061065  RH  064%=      5-min Rain = 0
KVE1 241212Z 35011KT M01/M07 A3013 RMK A01 T10061065  RH  064%=      5-min Rain = 0
KVE1 241213Z 35012KT M01/M07 A3013 RMK A01 T10071065  RH  065%=      5-min Rain = 0
KVE1 241214Z 35011KT M01/M07 A3013 RMK A01 T10071065  RH  065%=      5-min Rain = 0
KVE1 241215Z 36011KT M01/M07 A3013 RMK A01 T10071065  RH  065%=      5-min Rain = 0
KVE1 241216Z 36011KT M01/M07 A3013 RMK A01 T10071066  RH  064%=      5-min Rain = 0
KVE1 241217Z 36011KT M01/M07 A3013 RMK A01 T10071066  RH  064%=      5-min Rain = 0
KVE1 241218Z 36011KT M01/M07 A3013 RMK A01 T10061067  RH  064%=      5-min Rain = 0
KVE1 241219Z 36011KT M01/M07 A3013 RMK A01 T10061067  RH  063%=      5-min Rain = 0
KVE1 241220Z 36012KT M01/M07 A3013 RMK A01 T10061067  RH  063%=      5-min Rain = 0
KVE1 241221Z 36011KT M01/M07 A3013 RMK A01 T10051067  RH  063%=      5-min Rain = 0
KVE1 241222Z 36011KT M01/M07 A3013 RMK A01 T10051067  RH  063%=      5-min Rain = 0
KVE1 241223Z 36010KT M01/M07 A3013 RMK A01 T10061068  RH  063%=      5-min Rain = 0
KVE1 241224Z 35011KT M01/M07 A3013 RMK A01 T10071068  RH  063%=      5-min Rain = 0
KVE1 241225Z 36011KT M01/M07 A3013 RMK A01 T10071068  RH  063%=      5-min Rain = 0
KVE1 241226Z 35010KT M01/M07 A3013 RMK A01 T10071068  RH  064%=      5-min Rain = 0
KVE1 241227Z 36011KT M01/M07 A3013 RMK A01 T10081067  RH  064%=      5-min Rain = 0
KVE1 241228Z 36011KT M01/M07 A3013 RMK A01 T10081068  RH  064%=      5-min Rain = 0
KVE1 241229Z 36012KT M01/M07 A3013 RMK A01 T10081068  RH  064%=      5-min Rain = 0
KVE1 241230Z 36013KT M01/M07 A3013 RMK A01 T10081068  RH  064%=      5-min Rain = 0
KVE1 241231Z 36012KT M01/M07 A3013 RMK A01 T10071068  RH  064%=      5-min Rain = 0
KVE1 241232Z 36012KT M01/M07 A3013 RMK A01 T10061067  RH  063%=      5-min Rain = 0
KVE1 241233Z 36013KT M01/M07 A3013 RMK A01 T10061067  RH  063%=      5-min Rain = 0
KVE1 241234Z 36013KT M01/M07 A3013 RMK A01 T10061067  RH  063%=      5-min Rain = 0
KVE1 241235Z 36013KT M01/M07 A3013 RMK A01 T10071067  RH  063%=      5-min Rain = 0
KVE1 241236Z 35013KT M01/M07 A3013 RMK A01 T10071067  RH  063%=      5-min Rain = 0
KVE1 241237Z 35012KT M01/M07 A3013 RMK A01 T10071068  RH  063%=      5-min Rain = 0
KVE1 241238Z 35014KT M01/M07 A3013 RMK A01 T10061068  RH  063%=      5-min Rain = 0
KVE1 241239Z 35014KT M01/M07 A3013 RMK A01 T10051068  RH  062%=      5-min Rain = 0
KVE1 241240Z 35013KT M00/M07 A3013 RMK A01 T10041068  RH  062%=      5-min Rain = 0
KVE1 241241Z 35014KT M00/M07 A3014 RMK A01 T10041068  RH  062%=      5-min Rain = 0
KVE1 241242Z 35014KT M01/M07 A3014 RMK A01 T10051069  RH  062%=      5-min Rain = 0
KVE1 241243Z 35013KT M01/M07 A3014 RMK A01 T10051068  RH  062%=      5-min Rain = 0
KVE1 241244Z 35013KT M01/M07 A3014 RMK A01 T10061069  RH  062%=      5-min Rain = 0
KVE1 241245Z 35013KT M01/M07 A3014 RMK A01 T10061069  RH  063%=      5-min Rain = 0
KVE1 241246Z 35013KT M01/M07 A3014 RMK A01 T10071069  RH  063%=      5-min Rain = 0
KVE1 241247Z 35013KT M01/M07 A3014 RMK A01 T10071069  RH  063%=      5-min Rain = 0
KVE1 241248Z 35013KT M01/M07 A3014 RMK A01 T10071070  RH  063%=      5-min Rain = 0
KVE1 241249Z 35012KT M01/M07 A3014 RMK A01 T10071070  RH  063%=      5-min Rain = 0
KVE1 241250Z 35013KT M01/M07 A3014 RMK A01 T10081070  RH  063%=      5-min Rain = 0
KVE1 241251Z 35012KT M01/M07 A3014 RMK A01 T10091070  RH  063%=      5-min Rain = 0
KVE1 241252Z 35012KT M01/M07 A3014 RMK A01 T10091070  RH  064%=      5-min Rain = 0
KVE1 241253Z 35012KT M01/M07 A3014 RMK A01 T10091069  RH  064%=      5-min Rain = 0
KVE1 241254Z 36013KT M01/M07 A3014 RMK A01 T10091069  RH  064%=      5-min Rain = 0
KVE1 241255Z 36011KT M01/M07 A3014 RMK A01 T10091070  RH  064%=      5-min Rain = 0
KVE1 241256Z 36012KT M01/M07 A3014 RMK A01 T10091070  RH  063%=      5-min Rain = 0
KVE1 241257Z 36012KT M01/M07 A3014 RMK A01 T10091070  RH  063%=      5-min Rain = 0
KVE1 241258Z 36012KT M01/M07 A3015 RMK A01 T10081070  RH  063%=      5-min Rain = 0
KVE1 241259Z 36011KT M01/M07 A3015 RMK A01 T10081070  RH  063%=      5-min Rain = 0
KVE1 241300Z 36012KT M01/M07 A3015 RMK A01 T10091071  RH  063%=      5-min Rain = 0
KVE1 241301Z 36012KT M01/M07 A3015 RMK A01 T10081071  RH  062%=      5-min Rain = 0
KVE1 241302Z 36013KT M01/M07 A3015 RMK A01 T10081071  RH  062%=      5-min Rain = 0
KVE1 241303Z 36013KT M01/M07 A3015 RMK A01 T10081071  RH  062%=      5-min Rain = 0
KVE1 241304Z 35012KT M01/M07 A3015 RMK A01 T10081071  RH  062%=      5-min Rain = 0
KVE1 241305Z 35013KT M01/M07 A3015 RMK A01 T10081071  RH  062%=      5-min Rain = 0
KVE1 241306Z 35011KT M01/M07 A3015 RMK A01 T10071071  RH  062%=      5-min Rain = 0
KVE1 241307Z 35012KT M01/M07 A3015 RMK A01 T10081071  RH  062%=      5-min Rain = 0
KVE1 241308Z 36012KT M01/M07 A3015 RMK A01 T10091071  RH  063%=      5-min Rain = 0
KVE1 241309Z 36011KT M01/M07 A3015 RMK A01 T10101071  RH  063%=      5-min Rain = 0
KVE1 241310Z 35011KT M01/M07 A3015 RMK A01 T10101072  RH  063%=      5-min Rain = 0
KVE1 241311Z 35011KT M01/M07 A3015 RMK A01 T10101072  RH  063%=      5-min Rain = 0
KVE1 241312Z 35011KT M01/M07 A3015 RMK A01 T10101072  RH  063%=      5-min Rain = 0
KVE1 241313Z 35011KT M01/M07 A3015 RMK A01 T10101072  RH  063%=      5-min Rain = 0
KVE1 241314Z 35011KT M01/M07 A3015 RMK A01 T10101072  RH  063%=      5-min Rain = 0
KVE1 241315Z 35011KT M01/M07 A3016 RMK A01 T10111072  RH  063%=      5-min Rain = 0
KVE1 241316Z 36012KT M01/M07 A3016 RMK A01 T10121072  RH  063%=      5-min Rain = 0
KVE1 241317Z 35011KT M01/M07 A3016 RMK A01 T10121072  RH  064%=      5-min Rain = 0
KVE1 241318Z 35012KT M01/M07 A3016 RMK A01 T10121072  RH  064%=      5-min Rain = 0
KVE1 241319Z 35011KT M01/M07 A3016 RMK A01 T10111072  RH  064%=      5-min Rain = 0
KVE1 241320Z 36013KT M01/M07 A3016 RMK A01 T10101072  RH  063%=      5-min Rain = 0
KVE1 241321Z 35011KT M01/M07 A3016 RMK A01 T10081072  RH  062%=      5-min Rain = 0
KVE1 241322Z 35011KT M01/M07 A3016 RMK A01 T10091072  RH  062%=      5-min Rain = 0
KVE1 241323Z 36012KT M01/M07 A3016 RMK A01 T10101073  RH  062%=      5-min Rain = 0
KVE1 241324Z 35012KT M01/M07 A3016 RMK A01 T10101073  RH  062%=      5-min Rain = 0
KVE1 241325Z 35012KT M01/M07 A3016 RMK A01 T10101072  RH  063%=      5-min Rain = 0
KVE1 241326Z 35012G17KT M01/M07 A3016 RMK A01 T10101073  RH  062%=      5-min Rain = 0
KVE1 241327Z 36014KT M01/M07 A3016 RMK A01 T10101073  RH  062%=      5-min Rain = 0
KVE1 241328Z 36013KT M01/M07 A3016 RMK A01 T10101073  RH  062%=      5-min Rain = 0
KVE1 241329Z 35013KT M01/M07 A3016 RMK A01 T10101073  RH  062%=      5-min Rain = 0
KVE1 241330Z 35011KT M01/M07 A3016 RMK A01 T10101073  RH  062%=      5-min Rain = 0
KVE1 241331Z 35011KT M01/M07 A3016 RMK A01 T10101073  RH  062%=      5-min Rain = 0
KVE1 241332Z 35012KT M01/M07 A3016 RMK A01 T10101073  RH  062%=      5-min Rain = 0
KVE1 241333Z 36013KT M01/M07 A3016 RMK A01 T10101073  RH  062%=      5-min Rain = 0
KVE1 241334Z 36013KT M01/M07 A3016 RMK A01 T10101073  RH  062%=      5-min Rain = 0
KVE1 241335Z 36013KT M01/M07 A3016 RMK A01 T10101073  RH  062%=      5-min Rain = 0
KVE1 241336Z 35014KT M01/M07 A3016 RMK A01 T10101073  RH  062%=      5-min Rain = 0
KVE1 241337Z 35013KT M01/M07 A3017 RMK A01 T10101073  RH  062%=      5-min Rain = 0
KVE1 241338Z 35014KT M01/M07 A3017 RMK A01 T10101073  RH  062%=      5-min Rain = 0
KVE1 241339Z 35013KT M01/M07 A3017 RMK A01 T10091073  RH  062%=      5-min Rain = 0
KVE1 241340Z 35013KT M01/M07 A3017 RMK A01 T10091073  RH  061%=      5-min Rain = 0
KVE1 241341Z 35013KT M01/M07 A3017 RMK A01 T10091073  RH  061%=      5-min Rain = 0
KVE1 241342Z 35014KT M01/M07 A3017 RMK A01 T10091074  RH  062%=      5-min Rain = 0
KVE1 241343Z 35013KT M01/M07 A3017 RMK A01 T10091074  RH  062%=      5-min Rain = 0
KVE1 241344Z 35014KT M01/M07 A3017 RMK A01 T10091074  RH  061%=      5-min Rain = 0
KVE1 241345Z 35012KT M01/M07 A3017 RMK A01 T10091074  RH  061%=      5-min Rain = 0
KVE1 241346Z 35011KT M01/M07 A3017 RMK A01 T10091073  RH  062%=      5-min Rain = 0
KVE1 241347Z 36013KT M01/M07 A3017 RMK A01 T10091073  RH  062%=      5-min Rain = 0
KVE1 241348Z 35014KT M01/M07 A3017 RMK A01 T10091074  RH  062%=      5-min Rain = 0
KVE1 241349Z 35014KT M01/M07 A3017 RMK A01 T10081073  RH  061%=      5-min Rain = 0
KVE1 241350Z 35014KT M01/M07 A3017 RMK A01 T10071073  RH  061%=      5-min Rain = 0
KVE1 241351Z 35013KT M01/M07 A3017 RMK A01 T10061073  RH  060%=      5-min Rain = 0
KVE1 241352Z 35012KT M01/M07 A3017 RMK A01 T10061073  RH  060%=      5-min Rain = 0
KVE1 241353Z 35012KT M01/M07 A3017 RMK A01 T10061073  RH  060%=      5-min Rain = 0
KVE1 241354Z 36012KT M01/M07 A3017 RMK A01 T10061073  RH  060%=      5-min Rain = 0
KVE1 241355Z 36015KT M01/M07 A3017 RMK A01 T10061073  RH  061%=      5-min Rain = 0
KVE1 241356Z 36015KT M01/M07 A3017 RMK A01 T10061073  RH  060%=      5-min Rain = 0
KVE1 241357Z 36014KT M00/M07 A3017 RMK A01 T10041073  RH  060%=      5-min Rain = 0
KVE1 241358Z 36013KT M00/M07 A3017 RMK A01 T10041073  RH  060%=      5-min Rain = 0
KVE1 241359Z 35013KT M00/M07 A3017 RMK A01 T10041073  RH  060%=      5-min Rain = 0
KVE1 241400Z 36012KT M00/M07 A3017 RMK A01 T10041073  RH  060%=      5-min Rain = 0
KVE1 241401Z 36015KT M00/M07 A3017 RMK A01 T10041073  RH  060%=      5-min Rain = 0
KVE1 241402Z 35015KT M00/M07 A3018 RMK A01 T10031072  RH  060%=      5-min Rain = 0
KVE1 241403Z 35015KT M00/M07 A3018 RMK A01 T10021073  RH  059%=      5-min Rain = 0
KVE1 241404Z 36015KT M00/M07 A3018 RMK A01 T10011073  RH  058%=      5-min Rain = 0
KVE1 241405Z 35015KT M00/M07 A3018 RMK A01 T10011074  RH  058%=      5-min Rain = 0
KVE1 241406Z 35013KT 00/07 A3018 RMK A01 T00-00-74  RH  058%=      5-min Rain = 0
KVE1 241407Z 35014G19KT 00/07 A3018 RMK A01 T00000-73  RH  058%=      5-min Rain = 0
KVE1 241408Z 36015KT 00/07 A3018 RMK A01 T00000-73  RH  058%=      5-min Rain = 0
KVE1 241409Z 35014KT 00/M07 A3018 RMK A01 T00011074  RH  057%=      5-min Rain = 0
KVE1 241410Z 36014KT 00/M07 A3018 RMK A01 T00021074  RH  057%=      5-min Rain = 0
KVE1 241411Z 00013KT 00/M07 A3018 RMK A01 T00021073  RH  057%=      5-min Rain = 0
KVE1 241412Z 00017KT 00/M07 A3018 RMK A01 T00021072  RH  058%=      5-min Rain = 0
KVE1 241413Z 36016KT 00/M07 A3018 RMK A01 T00021073  RH  057%=      5-min Rain = 0
KVE1 241414Z 36014KT 00/M07 A3018 RMK A01 T00031073  RH  057%=      5-min Rain = 0
KVE1 241415Z 36012KT 00/M07 A3018 RMK A01 T00031072  RH  057%=      5-min Rain = 0
KVE1 241416Z 35015KT 00/M07 A3018 RMK A01 T00031073  RH  057%=      5-min Rain = 0
KVE1 241417Z 36016KT 00/M07 A3019 RMK A01 T00031073  RH  056%=      5-min Rain = 0
KVE1 241418Z 36014KT 00/M07 A3019 RMK A01 T00041073  RH  056%=      5-min Rain = 0
KVE1 241419Z 36016KT 00/M07 A3019 RMK A01 T00041073  RH  056%=      5-min Rain = 0
KVE1 241420Z 36014KT 00/M07 A3019 RMK A01 T00041073  RH  056%=      5-min Rain = 0
KVE1 241421Z 36013KT 01/M07 A3019 RMK A01 T00051073  RH  056%=      5-min Rain = 0
KVE1 241422Z 36013G19KT 01/M07 A3019 RMK A01 T00051073  RH  056%=      5-min Rain = 0
KVE1 241423Z 36013G18KT 01/M07 A302 RMK A01 T00061073  RH  056%=      5-min Rain = 0
KVE1 241424Z 36015KT 01/M07 A302 RMK A01 T00071072  RH  056%=      5-min Rain = 0
KVE1 241425Z 36014KT 01/M07 A302 RMK A01 T00071073  RH  055%=      5-min Rain = 0
KVE1 241426Z 36013KT 01/M07 A302 RMK A01 T00081073  RH  055%=      5-min Rain = 0
KVE1 241427Z 00012KT 01/M07 A302 RMK A01 T00081073  RH  055%=      5-min Rain = 0
KVE1 241428Z 01012KT 01/M07 A302 RMK A01 T00081073  RH  055%=      5-min Rain = 0
KVE1 241429Z 00011KT 01/M07 A302 RMK A01 T00091073  RH  055%=      5-min Rain = 0
KVE1 241430Z 00013KT 01/M07 A302 RMK A01 T00091072  RH  055%=      5-min Rain = 0
KVE1 241431Z 00013G18KT 01/M07 A302 RMK A01 T00091072  RH  054%=      5-min Rain = 0
KVE1 241432Z 00016G21KT 01/M07 A302 RMK A01 T00101073  RH  054%=      5-min Rain = 0
KVE1 241433Z 00017KT 01/M07 A302 RMK A01 T00101074  RH  053%=      5-min Rain = 0
KVE1 241434Z 00015KT 01/M07 A302 RMK A01 T00101074  RH  054%=      5-min Rain = 0
KVE1 241435Z 36017KT 01/M07 A302 RMK A01 T00101074  RH  053%=      5-min Rain = 0
KVE1 241436Z 36016KT 01/M08 A302 RMK A01 T00111075  RH  053%=      5-min Rain = 0
KVE1 241437Z 00014KT 01/M07 A3021 RMK A01 T00111074  RH  053%=      5-min Rain = 0
KVE1 241438Z 36011KT 01/M07 A3021 RMK A01 T00111074  RH  053%=      5-min Rain = 0
KVE1 241439Z 00012KT 01/M07 A3021 RMK A01 T00121073  RH  053%=      5-min Rain = 0
KVE1 241440Z 00014KT 01/M08 A3021 RMK A01 T00121075  RH  053%=      5-min Rain = 0
KVE1 241441Z 00012KT 01/M07 A3021 RMK A01 T00121074  RH  053%=      5-min Rain = 0
KVE1 241442Z 00013KT 01/M07 A3021 RMK A01 T00131073  RH  053%=      5-min Rain = 0
KVE1 241443Z 00014KT 01/M07 A3021 RMK A01 T00131073  RH  053%=      5-min Rain = 0
KVE1 241444Z 00015KT 01/M07 A3021 RMK A01 T00141072  RH  053%=      5-min Rain = 0
KVE1 241445Z 00013KT 02/M07 A3021 RMK A01 T00151072  RH  052%=      5-min Rain = 0
KVE1 241446Z 36013G18KT 02/M07 A3021 RMK A01 T00151072  RH  052%=      5-min Rain = 0
KVE1 241447Z 00016KT 02/M07 A3021 RMK A01 T00161073  RH  052%=      5-min Rain = 0
KVE1 241448Z 00014KT 02/M07 A3021 RMK A01 T00151074  RH  051%=      5-min Rain = 0
KVE1 241449Z 00013KT 02/M07 A3021 RMK A01 T00151073  RH  052%=      5-min Rain = 0
KVE1 241450Z 00012KT 02/M07 A3021 RMK A01 T00161072  RH  052%=      5-min Rain = 0
KVE1 241451Z 36015G20KT 02/M07 A3021 RMK A01 T00161073  RH  052%=      5-min Rain = 0
KVE1 241452Z 01016G22KT 02/M08 A3021 RMK A01 T00161075  RH  051%=      5-min Rain = 0
KVE1 241453Z 01015KT 02/M08 A3021 RMK A01 T00161075  RH  051%=      5-min Rain = 0
KVE1 241454Z 01017KT 02/M07 A3021 RMK A01 T00161074  RH  051%=      5-min Rain = 0
KVE1 241455Z 01016KT 02/M07 A3021 RMK A01 T00161074  RH  051%=      5-min Rain = 0
KVE1 241456Z 01017KT 02/M07 A3021 RMK A01 T00161074  RH  051%=      5-min Rain = 0
KVE1 241457Z 01016KT 02/M07 A3021 RMK A01 T00161074  RH  051%=      5-min Rain = 0
KVE1 241458Z 01016G21KT 02/M07 A3022 RMK A01 T00171072  RH  052%=      5-min Rain = 0
KVE1 241459Z 01018KT 02/M07 A3022 RMK A01 T00181072  RH  051%=      5-min Rain = 0
KVE1 241500Z 01017KT 02/M07 A3022 RMK A01 T00181073  RH  051%=      5-min Rain = 0
KVE1 241501Z 01016KT 02/M07 A3022 RMK A01 T00181072  RH  051%=      5-min Rain = 0
KVE1 241502Z 36015KT 02/M07 A3022 RMK A01 T00201071  RH  051%=      5-min Rain = 0
KVE1 241503Z 00018G24KT 02/M07 A3022 RMK A01 T00211071  RH  051%=      5-min Rain = 0
KVE1 241504Z 00017KT 02/M07 A3022 RMK A01 T00201072  RH  050%=      5-min Rain = 0
KVE1 241505Z 00017KT 02/M07 A3022 RMK A01 T00191073  RH  051%=      5-min Rain = 0
KVE1 241506Z 01016KT 02/M07 A3022 RMK A01 T00181073  RH  051%=      5-min Rain = 0
KVE1 241507Z 01015KT 02/M07 A3022 RMK A01 T00191071  RH  051%=      5-min Rain = 0
KVE1 241508Z 00013KT 02/M07 A3022 RMK A01 T00201071  RH  051%=      5-min Rain = 0
KVE1 241509Z 00016G21KT 02/M07 A3022 RMK A01 T00211071  RH  051%=      5-min Rain = 0
KVE1 241510Z 01017KT 02/M07 A3022 RMK A01 T00211072  RH  050%=      5-min Rain = 0
KVE1 241511Z 36016KT 02/M07 A3022 RMK A01 T00211072  RH  050%=      5-min Rain = 0
KVE1 241512Z 01019KT 02/M07 A3022 RMK A01 T00211072  RH  050%=      5-min Rain = 0
KVE1 241513Z 00016KT 02/M07 A3022 RMK A01 T00211073  RH  050%=      5-min Rain = 0
KVE1 241514Z 36017G24KT 02/M07 A3022 RMK A01 T00211071  RH  050%=      5-min Rain = 0
KVE1 241515Z 00020KT 02/M07 A3022 RMK A01 T00221072  RH  050%=      5-min Rain = 0
KVE1 241516Z 01021KT 02/M07 A3022 RMK A01 T00221073  RH  050%=      5-min Rain = 0
KVE1 241517Z 01019KT 02/M07 A3022 RMK A01 T00211073  RH  050%=      5-min Rain = 0
KVE1 241518Z 02018KT 02/M07 A3022 RMK A01 T00201073  RH  050%=      5-min Rain = 0
KVE1 241519Z 01018KT 02/M07 A3022 RMK A01 T00211072  RH  050%=      5-min Rain = 0
KVE1 241520Z 01018G23KT 02/M07 A3022 RMK A01 T00221071  RH  050%=      5-min Rain = 0
KVE1 241521Z 01019KT 02/M07 A3022 RMK A01 T00221071  RH  050%=      5-min Rain = 0
KVE1 241522Z 01018KT 02/M07 A3022 RMK A01 T00221072  RH  050%=      5-min Rain = 0
KVE1 241523Z 01018KT 02/M07 A3022 RMK A01 T00211071  RH  050%=      5-min Rain = 0
KVE1 241524Z 01018KT 02/M07 A3022 RMK A01 T00221071  RH  050%=      5-min Rain = 0
KVE1 241525Z 01016KT 02/M07 A3022 RMK A01 T00231070  RH  050%=      5-min Rain = 0
KVE1 241526Z 01014KT 02/M07 A3022 RMK A01 T00231070  RH  050%=      5-min Rain = 0
KVE1 241527Z 01014KT 02/M07 A3022 RMK A01 T00241070  RH  050%=      5-min Rain = 0
KVE1 241528Z 01016KT 03/M07 A3022 RMK A01 T00251069  RH  050%=      5-min Rain = 0
KVE1 241529Z 01017KT 03/M07 A3022 RMK A01 T00251069  RH  050%=      5-min Rain = 0
KVE1 241530Z 01016KT 03/M07 A3022 RMK A01 T00261068  RH  050%=      5-min Rain = 0
KVE1 241531Z 01016KT 03/M07 A3022 RMK A01 T00261069  RH  050%=      5-min Rain = 0
KVE1 241532Z 01016KT 03/M07 A3022 RMK A01 T00251069  RH  050%=      5-min Rain = 0
KVE1 241533Z 02018G23KT 03/M07 A3023 RMK A01 T00251069  RH  050%=      5-min Rain = 0
KVE1 241534Z 01015G20KT 03/M07 A3023 RMK A01 T00251069  RH  050%=      5-min Rain = 0
KVE1 241535Z 01015G20KT 03/M07 A3023 RMK A01 T00271067  RH  050%=      5-min Rain = 0
KVE1 241536Z 02016KT 03/M07 A3023 RMK A01 T00281067  RH  050%=      5-min Rain = 0
KVE1 241537Z 01015KT 03/M07 A3023 RMK A01 T00281069  RH  049%=      5-min Rain = 0
KVE1 241538Z 02017KT 03/M07 A3023 RMK A01 T00281068  RH  049%=      5-min Rain = 0
KVE1 241539Z 01017KT 03/M07 A3023 RMK A01 T00281069  RH  049%=      5-min Rain = 0
KVE1 241540Z 01018KT 03/M07 A3023 RMK A01 T00281068  RH  049%=      5-min Rain = 0
KVE1 241541Z 01019KT 03/M07 A3023 RMK A01 T00271069  RH  049%=      5-min Rain = 0
KVE1 241542Z 01017KT 03/M07 A3023 RMK A01 T00271069  RH  049%=      5-min Rain = 0
KVE1 241543Z 01014KT 03/M07 A3023 RMK A01 T00271069  RH  049%=      5-min Rain = 0
KVE1 241544Z 02013G19KT 03/M07 A3023 RMK A01 T00271068  RH  049%=      5-min Rain = 0
KVE1 241545Z 02016KT 03/M07 A3023 RMK A01 T00301066  RH  049%=      5-min Rain = 0
KVE1 241546Z 02015KT 03/M07 A3023 RMK A01 T00291070  RH  048%=      5-min Rain = 0
KVE1 241547Z 02016KT 03/M07 A3023 RMK A01 T00291068  RH  049%=      5-min Rain = 0
KVE1 241548Z 02015KT 03/M07 A3023 RMK A01 T00301068  RH  048%=      5-min Rain = 0
KVE1 241549Z 02015KT 03/M07 A3023 RMK A01 T00301069  RH  048%=      5-min Rain = 0
KVE1 241550Z 01016KT 03/M07 A3023 RMK A01 T00301068  RH  049%=      5-min Rain = 0
KVE1 241551Z 01015KT 03/M07 A3023 RMK A01 T00301069  RH  048%=      5-min Rain = 0
KVE1 241552Z 01015KT 03/M07 A3023 RMK A01 T00291069  RH  048%=      5-min Rain = 0
KVE1 241553Z 02014KT 03/M07 A3023 RMK A01 T00301069  RH  048%=      5-min Rain = 0
KVE1 241554Z 02014KT 03/M07 A3023 RMK A01 T00311068  RH  048%=      5-min Rain = 0
KVE1 241555Z 01014KT 03/M07 A3023 RMK A01 T00321068  RH  048%=      5-min Rain = 0
KVE1 241556Z 01014KT 03/M07 A3023 RMK A01 T00331068  RH  048%=      5-min Rain = 0
KVE1 241557Z 02015KT 03/M07 A3023 RMK A01 T00331069  RH  047%=      5-min Rain = 0
KVE1 241558Z 03014KT 03/M07 A3023 RMK A01 T00331069  RH  047%=      5-min Rain = 0
KVE1 241559Z 03014KT 03/M07 A3023 RMK A01 T00321070  RH  047%=      5-min Rain = 0
KVE1 241600Z 03015KT 03/M07 A3023 RMK A01 T00321068  RH  048%=      5-min Rain = 0
KVE1 241601Z 03014KT 03/M07 A3023 RMK A01 T00331069  RH  047%=      5-min Rain = 0
KVE1 241602Z 03013KT 03/M07 A3023 RMK A01 T00341067  RH  047%=      5-min Rain = 0
KVE1 241603Z 04013KT 04/M07 A3023 RMK A01 T00351068  RH  047%=      5-min Rain = 0
KVE1 241604Z 03015KT 04/M07 A3023 RMK A01 T00361068  RH  047%=      5-min Rain = 0
KVE1 241605Z 03015KT 04/M07 A3023 RMK A01 T00351069  RH  046%=      5-min Rain = 0
KVE1 241606Z 02013KT 03/M07 A3023 RMK A01 T00341070  RH  046%=      5-min Rain = 0
KVE1 241607Z 02013KT 03/M07 A3023 RMK A01 T00341070  RH  046%=      5-min Rain = 0
KVE1 241608Z 02014KT 03/M07 A3023 RMK A01 T00341069  RH  047%=      5-min Rain = 0
KVE1 241609Z 02012KT 04/M07 A3023 RMK A01 T00351069  RH  047%=      5-min Rain = 0
KVE1 241610Z 01012KT 04/M07 A3023 RMK A01 T00351067  RH  047%=      5-min Rain = 0
KVE1 241611Z 01012KT 04/M07 A3023 RMK A01 T00371066  RH  047%=      5-min Rain = 0
KVE1 241612Z 01012KT 04/M07 A3023 RMK A01 T00381067  RH  046%=      5-min Rain = 0
KVE1 241613Z 02012KT 04/M07 A3023 RMK A01 T00371068  RH  046%=      5-min Rain = 0
KVE1 241614Z 04013KT 04/M07 A3023 RMK A01 T00371069  RH  046%=      5-min Rain = 0
KVE1 241615Z 04013KT 04/M07 A3023 RMK A01 T00391070  RH  045%=      5-min Rain = 0
KVE1 241616Z 03013KT 04/M07 A3023 RMK A01 T00391071  RH  045%=      5-min Rain = 0
KVE1 241617Z 03013KT 04/M07 A3023 RMK A01 T00381069  RH  046%=      5-min Rain = 0
KVE1 241618Z 04010KT 04/M07 A3023 RMK A01 T00401066  RH  046%=      5-min Rain = 0
KVE1 241619Z 01014KT 04/M06 A3022 RMK A01 T00421064  RH  046%=      5-min Rain = 0
KVE1 241620Z 02013KT 04/M07 A3022 RMK A01 T00431069  RH  044%=      5-min Rain = 0
KVE1 241621Z 02014KT 04/M07 A3023 RMK A01 T00401071  RH  044%=      5-min Rain = 0
KVE1 241622Z 02013KT 04/M07 A3023 RMK A01 T00401070  RH  044%=      5-min Rain = 0
KVE1 241623Z 02010KT 04/M07 A3023 RMK A01 T00411069  RH  045%=      5-min Rain = 0
KVE1 241624Z 01011KT 04/M07 A3023 RMK A01 T00441067  RH  044%=      5-min Rain = 0
KVE1 241625Z 01011KT 04/M07 A3023 RMK A01 T00441068  RH  044%=      5-min Rain = 0
KVE1 241626Z 03010KT 05/M07 A3023 RMK A01 T00471065  RH  044%=      5-min Rain = 0
KVE1 241627Z 03012G17KT 05/M07 A3023 RMK A01 T00471069  RH  043%=      5-min Rain = 0
KVE1 241628Z 04014KT 05/M07 A3023 RMK A01 T00461070  RH  043%=      5-min Rain = 0
KVE1 241629Z 03012KT 05/M07 A3023 RMK A01 T00451070  RH  043%=      5-min Rain = 0
KVE1 241630Z 03013KT 05/M07 A3023 RMK A01 T00451071  RH  043%=      5-min Rain = 0
KVE1 241631Z 03014KT 05/M07 A3023 RMK A01 T00461070  RH  042%=      5-min Rain = 0
KVE1 241632Z 03012KT 05/M07 A3023 RMK A01 T00451073  RH  042%=      5-min Rain = 0
KVE1 241633Z 02009KT 04/M07 A3023 RMK A01 T00421072  RH  043%=      5-min Rain = 0
KVE1 241634Z 03011KT 04/M07 A3023 RMK A01 T00441068  RH  044%=      5-min Rain = 0
KVE1 241635Z 02011KT 05/M07 A3023 RMK A01 T00461068  RH  043%=      5-min Rain = 0
KVE1 241636Z 02010KT 05/M07 A3023 RMK A01 T00471070  RH  042%=      5-min Rain = 0
KVE1 241637Z 01011KT 05/M07 A3023 RMK A01 T00461071  RH  042%=      5-min Rain = 0
KVE1 241638Z 02013KT 05/M07 A3023 RMK A01 T00461071  RH  043%=      5-min Rain = 0
KVE1 241639Z 02011KT 05/M07 A3023 RMK A01 T00461070  RH  043%=      5-min Rain = 0
KVE1 241640Z 03011G17KT 05/M07 A3023 RMK A01 T00471068  RH  043%=      5-min Rain = 0
KVE1 241641Z 03013KT 05/M07 A3023 RMK A01 T00481068  RH  043%=      5-min Rain = 0
KVE1 241642Z 03009KT 05/M07 A3023 RMK A01 T00461069  RH  043%=      5-min Rain = 0
KVE1 241643Z 02009KT 05/M07 A3022 RMK A01 T00461066  RH  044%=      5-min Rain = 0
KVE1 241644Z 01009KT 05/M07 A3022 RMK A01 T00481068  RH  043%=      5-min Rain = 0
KVE1 241645Z 02007KT 05/M07 A3022 RMK A01 T00461069  RH  043%=      5-min Rain = 0
KVE1 241646Z 04013KT 05/M07 A3023 RMK A01 T00471067  RH  043%=      5-min Rain = 0
KVE1 241647Z 02011KT 05/M07 A3023 RMK A01 T00491069  RH  042%=      5-min Rain = 0
KVE1 241648Z 02009KT 05/M07 A3023 RMK A01 T00481069  RH  042%=      5-min Rain = 0
KVE1 241649Z 01010KT 05/M07 A3022 RMK A01 T00481070  RH  042%=      5-min Rain = 0
KVE1 241650Z 01012KT 05/M07 A3023 RMK A01 T00481071  RH  042%=      5-min Rain = 0
KVE1 241651Z 02010KT 05/M07 A3023 RMK A01 T00501070  RH  042%=      5-min Rain = 0
KVE1 241652Z 03010KT 05/M07 A3023 RMK A01 T00521068  RH  042%=      5-min Rain = 0
KVE1 241653Z 02010KT 05/M07 A3023 RMK A01 T00541067  RH  041%=      5-min Rain = 0
KVE1 241654Z 02009G14KT 06/M07 A3022 RMK A01 T00551066  RH  041%=      5-min Rain = 0
KVE1 241655Z 02012KT 06/M07 A3022 RMK A01 T00551067  RH  041%=      5-min Rain = 0
KVE1 241656Z 02009KT 05/M07 A3022 RMK A01 T00541068  RH  041%=      5-min Rain = 0
KVE1 241657Z 02010KT 05/M07 A3022 RMK A01 T00531071  RH  040%=      5-min Rain = 0
KVE1 241658Z 04012KT 05/M07 A3023 RMK A01 T00531070  RH  041%=      5-min Rain = 0
KVE1 241659Z 05010KT 06/M07 A3023 RMK A01 T00551072  RH  040%=      5-min Rain = 0
KVE1 241700Z 04008KT 06/M07 A3022 RMK A01 T00551071  RH  040%=      5-min Rain = 0
KVE1 241701Z 04011KT 06/M07 A3023 RMK A01 T00561070  RH  040%=      5-min Rain = 0
KVE1 241702Z 03013KT 06/M07 A3023 RMK A01 T00551073  RH  039%=      5-min Rain = 0
KVE1 241703Z 04011KT 05/M08 A3023 RMK A01 T00531075  RH  039%=      5-min Rain = 0
KVE1 241704Z 04011KT 05/M07 A3023 RMK A01 T00531071  RH  040%=      5-min Rain = 0
KVE1 241705Z 04010KT 05/M07 A3022 RMK A01 T00541073  RH  039%=      5-min Rain = 0
KVE1 241706Z 02010KT 05/M07 A3022 RMK A01 T00521071  RH  041%=      5-min Rain = 0
KVE1 241707Z 02011G16KT 05/M07 A3022 RMK A01 T00521072  RH  040%=      5-min Rain = 0
KVE1 241708Z 03012KT 05/M07 A3022 RMK A01 T00531073  RH  040%=      5-min Rain = 0
KVE1 241709Z 05010KT 05/M07 A3022 RMK A01 T00541074  RH  039%=      5-min Rain = 0
KVE1 241710Z 03012KT 05/M07 A3023 RMK A01 T00541074  RH  039%=      5-min Rain = 0
KVE1 241711Z 03010KT 05/M07 A3023 RMK A01 T00541074  RH  039%=      5-min Rain = 0
KVE1 241712Z 03013KT 06/M07 A3023 RMK A01 T00551074  RH  039%=      5-min Rain = 0
KVE1 241713Z 03008KT 06/M08 A3023 RMK A01 T00551076  RH  038%=      5-min Rain = 0
KVE1 241714Z 03008KT 05/M08 A3022 RMK A01 T00521077  RH  039%=      5-min Rain = 0
KVE1 241715Z 02007KT 05/M07 A3022 RMK A01 T00541072  RH  040%=      5-min Rain = 0
KVE1 241716Z 02011KT 06/M07 A3022 RMK A01 T00601066  RH  040%=      5-min Rain = 0
KVE1 241717Z 02011KT 06/M07 A3022 RMK A01 T00631069  RH  038%=      5-min Rain = 0
KVE1 241718Z 01009KT 06/M07 A3022 RMK A01 T00601073  RH  038%=      5-min Rain = 0
KVE1 241719Z 02008KT 06/M07 A3022 RMK A01 T00571072  RH  039%=      5-min Rain = 0
KVE1 241720Z 02012KT 06/M07 A3023 RMK A01 T00561074  RH  039%=      5-min Rain = 0
KVE1 241721Z 02010KT 06/M07 A3023 RMK A01 T00551074  RH  039%=      5-min Rain = 0
KVE1 241722Z 01009KT 05/M08 A3023 RMK A01 T00541076  RH  039%=      5-min Rain = 0
KVE1 241723Z 02010KT 05/M08 A3023 RMK A01 T00541075  RH  039%=      5-min Rain = 0
KVE1 241724Z 03008KT 05/M07 A3023 RMK A01 T00541074  RH  039%=      5-min Rain = 0
KVE1 241725Z 01010KT 06/M07 A3023 RMK A01 T00561070  RH  040%=      5-min Rain = 0
KVE1 241726Z 03008KT 06/M07 A3023 RMK A01 T00591069  RH  039%=      5-min Rain = 0
KVE1 241727Z 05005KT 06/M07 A3023 RMK A01 T00631066  RH  039%=      5-min Rain = 0
KVE1 241728Z 05011KT 07/M07 A3023 RMK A01 T00661070  RH  037%=      5-min Rain = 0
KVE1 241729Z 03007KT 06/M07 A3023 RMK A01 T00641071  RH  037%=      5-min Rain = 0
KVE1 241730Z 04005KT 06/M07 A3023 RMK A01 T00631071  RH  038%=      5-min Rain = 0
KVE1 241731Z 04007KT 06/M07 A3023 RMK A01 T00631071  RH  038%=      5-min Rain = 0
KVE1 241732Z 04009KT 06/M07 A3023 RMK A01 T00641072  RH  037%=      5-min Rain = 0
KVE1 241733Z 03011KT 06/M07 A3023 RMK A01 T00631074  RH  037%=      5-min Rain = 0
KVE1 241734Z 02012KT 06/M08 A3023 RMK A01 T00621077  RH  036%=      5-min Rain = 0
KVE1 241735Z 02010KT 06/M08 A3023 RMK A01 T00621075  RH  037%=      5-min Rain = 0
KVE1 241736Z 02009KT 06/M08 A3023 RMK A01 T00611075  RH  037%=      5-min Rain = 0
KVE1 241737Z 03011KT 06/M07 A3023 RMK A01 T00611073  RH  037%=      5-min Rain = 0
KVE1 241738Z 04010KT 06/M07 A3023 RMK A01 T00641072  RH  037%=      5-min Rain = 0
KVE1 241739Z 05008KT 07/M08 A3023 RMK A01 T00661076  RH  036%=      5-min Rain = 0
KVE1 241740Z 05006KT 07/M08 A3023 RMK A01 T00651077  RH  036%=      5-min Rain = 0
KVE1 241741Z 04007KT 07/M08 A3023 RMK A01 T00651075  RH  036%=      5-min Rain = 0
KVE1 241742Z 00009KT 06/M08 A3023 RMK A01 T00641076  RH  036%=      5-min Rain = 0
KVE1 241743Z 02008KT 06/M08 A3023 RMK A01 T00631076  RH  036%=      5-min Rain = 0
KVE1 241744Z 05008KT 06/M07 A3023 RMK A01 T00631073  RH  037%=      5-min Rain = 0
KVE1 241745Z 05007KT 07/M08 A3023 RMK A01 T00661075  RH  036%=      5-min Rain = 0
KVE1 241746Z 03006KT 06/M08 A3023 RMK A01 T00641077  RH  036%=      5-min Rain = 0
KVE1 241747Z 02008KT 06/M08 A3023 RMK A01 T00641078  RH  035%=      5-min Rain = 0
KVE1 241748Z 02007KT 07/M08 A3023 RMK A01 T00651078  RH  035%=      5-min Rain = 0
KVE1 241749Z 02009KT 07/M08 A3023 RMK A01 T00671077  RH  035%=      5-min Rain = 0
KVE1 241750Z 03008KT 07/M08 A3023 RMK A01 T00671075  RH  036%=      5-min Rain = 0
KVE1 241751Z 02006KT 07/M08 A3023 RMK A01 T00661075  RH  036%=      5-min Rain = 0
KVE1 241752Z 01006KT 07/M07 A3023 RMK A01 T00651074  RH  036%=      5-min Rain = 0
KVE1 241753Z 04009KT 07/M07 A3023 RMK A01 T00671069  RH  037%=      5-min Rain = 0
KVE1 241754Z 06006KT 07/M07 A3023 RMK A01 T00681073  RH  036%=      5-min Rain = 0
KVE1 241755Z 05005KT 07/M07 A3023 RMK A01 T00681071  RH  036%=      5-min Rain = 0
KVE1 241756Z 01008KT 07/M07 A3023 RMK A01 T00691072  RH  036%=      5-min Rain = 0
KVE1 241757Z 04009KT 07/M08 A3023 RMK A01 T00691076  RH  035%=      5-min Rain = 0
KVE1 241758Z 05007KT 07/M08 A3023 RMK A01 T00681080  RH  034%=      5-min Rain = 0
KVE1 241759Z 06007KT 07/M08 A3022 RMK A01 T00681082  RH  033%=      5-min Rain = 0
KVE1 241800Z 06009G15KT 07/M08 A3022 RMK A01 T00691077  RH  034%=      5-min Rain = 0
KVE1 241801Z 04012KT 07/M08 A3023 RMK A01 T00731078  RH  033%=      5-min Rain = 0
KVE1 241802Z 04008KT 07/M08 A3022 RMK A01 T00731084  RH  032%=      5-min Rain = 0
KVE1 241803Z 05008KT 07/M09 A3022 RMK A01 T00701091  RH  031%=      5-min Rain = 0
KVE1 241804Z 04009KT 07/M09 A3022 RMK A01 T00681090  RH  031%=      5-min Rain = 0
KVE1 241805Z 04009G15KT 07/M09 A3022 RMK A01 T00681087  RH  032%=      5-min Rain = 0
KVE1 241806Z 04009KT 07/M09 A3022 RMK A01 T00691085  RH  032%=      5-min Rain = 0
KVE1 241807Z 04008KT 07/M08 A3022 RMK A01 T00701083  RH  033%=      5-min Rain = 0
KVE1 241808Z 05009KT 07/M08 A3022 RMK A01 T00721083  RH  032%=      5-min Rain = 0
KVE1 241809Z 04010KT 08/M08 A3022 RMK A01 T00751081  RH  032%=      5-min Rain = 0
KVE1 241810Z 04010KT 08/M08 A3022 RMK A01 T00751082  RH  032%=      5-min Rain = 0
KVE1 241811Z 02008KT 07/M08 A3022 RMK A01 T00731083  RH  032%=      5-min Rain = 0
KVE1 241812Z 05008KT 07/M08 A3022 RMK A01 T00721083  RH  032%=      5-min Rain = 0
KVE1 241813Z 06007KT 07/M08 A3022 RMK A01 T00701081  RH  033%=      5-min Rain = 0
KVE1 241814Z 05009KT 08/M08 A3022 RMK A01 T00751078  RH  033%=      5-min Rain = 0
KVE1 241815Z 03009KT 08/M08 A3021 RMK A01 T00751084  RH  031%=      5-min Rain = 0
KVE1 241816Z 05012KT 08/M09 A3022 RMK A01 T00751085  RH  031%=      5-min Rain = 0
KVE1 241817Z 06011KT 08/M09 A3022 RMK A01 T00781088  RH  030%=      5-min Rain = 0
KVE1 241818Z 07008KT 08/M09 A3021 RMK A01 T00791091  RH  029%=      5-min Rain = 0
KVE1 241819Z 06008KT 08/M09 A3021 RMK A01 T00761092  RH  029%=      5-min Rain = 0
KVE1 241820Z 03012KT 08/M08 A3021 RMK A01 T00751084  RH  031%=      5-min Rain = 0
KVE1 241821Z 04010KT 08/M08 A3021 RMK A01 T00751082  RH  032%=      5-min Rain = 0
KVE1 241822Z 04008KT 08/M08 A3021 RMK A01 T00761081  RH  032%=      5-min Rain = 0
KVE1 241823Z 05006KT 08/M08 A3021 RMK A01 T00751084  RH  031%=      5-min Rain = 0
KVE1 241824Z 06003KT 07/M09 A302 RMK A01 T00721087  RH  031%=      5-min Rain = 0
KVE1 241825Z 03010G16KT 07/M08 A302 RMK A01 T00711084  RH  032%=      5-min Rain = 0
KVE1 241826Z 07009G15KT 08/M08 A3021 RMK A01 T00751080  RH  032%=      5-min Rain = 0
KVE1 241827Z 07007KT 08/M08 A302 RMK A01 T00781079  RH  032%=      5-min Rain = 0
KVE1 241828Z 08009KT 08/M08 A3021 RMK A01 T00771084  RH  031%=      5-min Rain = 0
KVE1 241829Z 08011KT 08/M10 A3021 RMK A01 T00771096  RH  028%=      5-min Rain = 0
KVE1 241830Z 07011KT 08/M10 A302 RMK A01 T00771098  RH  028%=      5-min Rain = 0
KVE1 241831Z 06008KT 08/M10 A302 RMK A01 T00761095  RH  029%=      5-min Rain = 0
KVE1 241832Z 08007KT 07/M09 A302 RMK A01 T00741094  RH  029%=      5-min Rain = 0
KVE1 241833Z 07010KT 08/M09 A302 RMK A01 T00751089  RH  030%=      5-min Rain = 0
KVE1 241834Z 05010KT 08/M09 A302 RMK A01 T00801089  RH  029%=      5-min Rain = 0
KVE1 241835Z 04009KT 08/M09 A302 RMK A01 T00781093  RH  029%=      5-min Rain = 0
KVE1 241836Z 02008KT 08/M09 A302 RMK A01 T00751090  RH  030%=      5-min Rain = 0
KVE1 241837Z 03009G14KT 08/M08 A302 RMK A01 T00761084  RH  031%=      5-min Rain = 0
KVE1 241838Z 03011KT 08/M08 A302 RMK A01 T00811083  RH  030%=      5-min Rain = 0
KVE1 241839Z 03012KT 08/M09 A302 RMK A01 T00831085  RH  030%=      5-min Rain = 0
KVE1 241840Z 05007KT 08/M09 A302 RMK A01 T00821085  RH  030%=      5-min Rain = 0
KVE1 241841Z 05010KT 08/M09 A302 RMK A01 T00811086  RH  030%=      5-min Rain = 0
KVE1 241842Z 07010KT 08/M09 A302 RMK A01 T00811090  RH  029%=      5-min Rain = 0
KVE1 241843Z 07007KT 08/M09 A302 RMK A01 T00811090  RH  029%=      5-min Rain = 0
KVE1 241844Z 08008KT 08/M09 A302 RMK A01 T00781088  RH  030%=      5-min Rain = 0
KVE1 241845Z 07007KT 08/M08 A302 RMK A01 T00771084  RH  031%=      5-min Rain = 0
KVE1 241846Z 05007KT 08/M08 A302 RMK A01 T00801079  RH  031%=      5-min Rain = 0
KVE1 241847Z 03011KT 08/M08 A302 RMK A01 T00841083  RH  030%=      5-min Rain = 0
KVE1 241848Z 02014KT 09/M09 A302 RMK A01 T00851090  RH  028%=      5-min Rain = 0
KVE1 241849Z 03012KT 08/M09 A3019 RMK A01 T00821093  RH  028%=      5-min Rain = 0
KVE1 241850Z 05011KT 08/M09 A3019 RMK A01 T00821091  RH  028%=      5-min Rain = 0
KVE1 241851Z 03009KT 08/M09 A3019 RMK A01 T00821089  RH  029%=      5-min Rain = 0
KVE1 241852Z 04009KT 08/M09 A3019 RMK A01 T00831092  RH  028%=      5-min Rain = 0
KVE1 241853Z 03009G18KT 08/M10 A3019 RMK A01 T00811099  RH  027%=      5-min Rain = 0
KVE1 241854Z 05014KT 08/M10 A302 RMK A01 T00811099  RH  027%=      5-min Rain = 0
KVE1 241855Z 04012KT 08/M10 A3019 RMK A01 T00831101  RH  026%=      5-min Rain = 0
KVE1 241856Z 05013KT 09/M10 A302 RMK A01 T00851098  RH  026%=      5-min Rain = 0
KVE1 241857Z 07010KT 09/M10 A302 RMK A01 T00871101  RH  025%=      5-min Rain = 0
KVE1 241858Z 05009KT 09/M10 A3019 RMK A01 T00861101  RH  025%=      5-min Rain = 0
KVE1 241859Z 03009KT 09/M10 A3019 RMK A01 T00851102  RH  025%=      5-min Rain = 0
KVE1 241900Z 03009KT 08/M10 A3019 RMK A01 T00841104  RH  025%=      5-min Rain = 0
KVE1 241901Z 03011KT 08/M11 A3019 RMK A01 T00821107  RH  025%=      5-min Rain = 0
KVE1 241902Z 05009KT 08/M10 A3019 RMK A01 T00811103  RH  026%=      5-min Rain = 0
KVE1 241903Z 04008KT 08/M10 A3019 RMK A01 T00831096  RH  027%=      5-min Rain = 0
KVE1 241904Z 04008KT 08/M09 A3019 RMK A01 T00841094  RH  027%=      5-min Rain = 0
KVE1 241905Z 03012G17KT 09/M09 A3019 RMK A01 T00881091  RH  027%=      5-min Rain = 0
KVE1 241906Z 04011KT 09/M10 A3019 RMK A01 T00891098  RH  026%=      5-min Rain = 0
KVE1 241907Z 05011KT 09/M10 A3019 RMK A01 T00861099  RH  026%=      5-min Rain = 0
KVE1 241908Z 06012KT 09/M10 A3019 RMK A01 T00881096  RH  026%=      5-min Rain = 0
KVE1 241909Z 06010KT 09/M10 A3019 RMK A01 T00881099  RH  026%=      5-min Rain = 0
KVE1 241910Z 05011KT 09/M10 A3019 RMK A01 T00891096  RH  026%=      5-min Rain = 0
KVE1 241911Z 05012G17KT 09/M10 A3019 RMK A01 T00901100  RH  025%=      5-min Rain = 0
KVE1 241912Z 06012KT 09/M10 A3019 RMK A01 T00911098  RH  025%=      5-min Rain = 0
KVE1 241913Z 06011KT 09/M10 A3019 RMK A01 T00921098  RH  025%=      5-min Rain = 0
KVE1 241914Z 08011G16KT 09/M10 A3019 RMK A01 T00901104  RH  024%=      5-min Rain = 0
KVE1 241915Z 08011KT 09/M11 A3019 RMK A01 T00861106  RH  025%=      5-min Rain = 0
KVE1 241916Z 07007KT 09/M10 A3019 RMK A01 T00861103  RH  025%=      5-min Rain = 0
KVE1 241917Z 07007KT 09/M10 A3019 RMK A01 T00871102  RH  025%=      5-min Rain = 0
KVE1 241918Z 06006KT 09/M11 A3018 RMK A01 T00871105  RH  025%=      5-min Rain = 0
KVE1 241919Z 07009KT 09/M10 A3018 RMK A01 T00861101  RH  025%=      5-min Rain = 0
KVE1 241920Z 07009KT 09/M10 A3018 RMK A01 T00871099  RH  026%=      5-min Rain = 0
KVE1 241921Z 07012KT 09/M10 A3018 RMK A01 T00891099  RH  025%=      5-min Rain = 0
KVE1 241922Z 06010KT 09/M10 A3018 RMK A01 T00921104  RH  024%=      5-min Rain = 0
KVE1 241923Z 04012KT 09/M11 A3018 RMK A01 T00911108  RH  023%=      5-min Rain = 0
KVE1 241924Z 04012KT 09/M11 A3018 RMK A01 T00911109  RH  023%=      5-min Rain = 0
KVE1 241925Z 04009KT 09/M11 A3018 RMK A01 T00901107  RH  024%=      5-min Rain = 0
KVE1 241926Z 07010KT 09/M11 A3018 RMK A01 T00901105  RH  024%=      5-min Rain = 0
KVE1 241927Z 07012KT 09/M11 A3018 RMK A01 T00901107  RH  024%=      5-min Rain = 0
KVE1 241928Z 07009KT 09/M11 A3018 RMK A01 T00891111  RH  023%=      5-min Rain = 0
KVE1 241929Z 07009KT 09/M11 A3018 RMK A01 T00881110  RH  023%=      5-min Rain = 0
KVE1 241930Z 06010KT 09/M11 A3018 RMK A01 T00901107  RH  024%=      5-min Rain = 0
KVE1 241931Z 06010KT 09/M11 A3018 RMK A01 T00911106  RH  024%=      5-min Rain = 0
KVE1 241932Z 06011KT 09/M11 A3018 RMK A01 T00911105  RH  024%=      5-min Rain = 0
KVE1 241933Z 06006KT 09/M11 A3018 RMK A01 T00881109  RH  024%=      5-min Rain = 0
KVE1 241934Z 06010KT 09/M11 A3018 RMK A01 T00871105  RH  025%=      5-min Rain = 0
KVE1 241935Z 06013KT 09/M10 A3018 RMK A01 T00941099  RH  025%=      5-min Rain = 0
KVE1 241936Z 05010KT 10/M10 A3018 RMK A01 T00971103  RH  023%=      5-min Rain = 0
KVE1 241937Z 06010KT 10/M10 A3018 RMK A01 T00981103  RH  023%=      5-min Rain = 0
KVE1 241938Z 05008KT 10/M11 A3018 RMK A01 T00971107  RH  023%=      5-min Rain = 0
KVE1 241939Z 05010KT 09/M10 A3018 RMK A01 T00941104  RH  024%=      5-min Rain = 0
KVE1 241940Z 08012KT 10/M11 A3018 RMK A01 T00961105  RH  023%=      5-min Rain = 0
KVE1 241941Z 09009KT 09/M11 A3018 RMK A01 T00941109  RH  022%=      5-min Rain = 0
KVE1 241942Z 09005KT 09/M11 A3018 RMK A01 T00931105  RH  024%=      5-min Rain = 0
KVE1 241943Z 08007KT 10/M10 A3018 RMK A01 T00971098  RH  024%=      5-min Rain = 0
KVE1 241944Z 08009KT 10/M11 A3018 RMK A01 T00981105  RH  023%=      5-min Rain = 0
KVE1 241945Z 09009G14KT 09/M11 A3018 RMK A01 T00921109  RH  023%=      5-min Rain = 0
KVE1 241946Z 09010KT 09/M11 A3018 RMK A01 T00931105  RH  024%=      5-min Rain = 0
KVE1 241947Z 09010KT 09/M11 A3017 RMK A01 T00941107  RH  023%=      5-min Rain = 0
KVE1 241948Z 07008KT 09/M11 A3017 RMK A01 T00921106  RH  024%=      5-min Rain = 0
KVE1 241949Z 07005KT 09/M10 A3017 RMK A01 T00941100  RH  024%=      5-min Rain = 0
KVE1 241950Z 08006G11KT 10/M10 A3017 RMK A01 T00971102  RH  024%=      5-min Rain = 0
KVE1 241951Z 06011G16KT 10/M10 A3017 RMK A01 T00971099  RH  024%=      5-min Rain = 0
KVE1 241952Z 06011KT 10/M10 A3017 RMK A01 T00991102  RH  023%=      5-min Rain = 0
KVE1 241953Z 05010G15KT 10/M11 A3017 RMK A01 T00961105  RH  023%=      5-min Rain = 0
KVE1 241954Z 08014KT 10/M10 A3017 RMK A01 T00951104  RH  023%=      5-min Rain = 0
KVE1 241955Z 09009KT 10/M11 A3017 RMK A01 T00961105  RH  023%=      5-min Rain = 0
KVE1 241956Z 08014KT 10/M11 A3017 RMK A01 T00971105  RH  023%=      5-min Rain = 0
KVE1 241957Z 08011KT 09/M11 A3017 RMK A01 T00941106  RH  023%=      5-min Rain = 0
KVE1 241958Z 09012KT 10/M10 A3017 RMK A01 T00981098  RH  024%=      5-min Rain = 0
KVE1 241959Z 10009KT 10/M11 A3017 RMK A01 T00981107  RH  022%=      5-min Rain = 0
KVE1 242000Z 11008KT 09/M11 A3017 RMK A01 T00941108  RH  023%=      5-min Rain = 0
KVE1 242001Z 12005KT 09/M11 A3017 RMK A01 T00911110  RH  023%=      5-min Rain = 0
KVE1 242002Z 10004KT 09/M10 A3017 RMK A01 T00911104  RH  024%=      5-min Rain = 0
KVE1 242003Z 05005KT 09/M11 A3017 RMK A01 T00931105  RH  024%=      5-min Rain = 0
KVE1 242004Z 06002KT 09/M11 A3017 RMK A01 T00931105  RH  024%=      5-min Rain = 0
KVE1 242005Z 05006G18KT 09/M10 A3016 RMK A01 T00921101  RH  024%=      5-min Rain = 0
KVE1 242006Z 10012G18KT 10/M11 A3017 RMK A01 T00951105  RH  023%=      5-min Rain = 0
KVE1 242007Z 10013KT 10/M11 A3017 RMK A01 T00951108  RH  023%=      5-min Rain = 0
KVE1 242008Z 09012G19KT 10/M11 A3017 RMK A01 T00971109  RH  022%=      5-min Rain = 0
KVE1 242009Z 10012KT 10/M11 A3017 RMK A01 T00991109  RH  022%=      5-min Rain = 0
KVE1 242010Z 10009KT 10/M11 A3017 RMK A01 T00961110  RH  022%=      5-min Rain = 0
KVE1 242011Z 13008KT 10/M11 A3016 RMK A01 T00951108  RH  023%=      5-min Rain = 0
KVE1 242012Z 13007KT 09/M11 A3016 RMK A01 T00931111  RH  022%=      5-min Rain = 0
KVE1 242013Z 12007KT 09/M11 A3016 RMK A01 T00921112  RH  022%=      5-min Rain = 0
KVE1 242014Z 12006KT 09/M11 A3016 RMK A01 T00931110  RH  023%=      5-min Rain = 0
KVE1 242015Z 08009KT 09/M11 A3016 RMK A01 T00941108  RH  023%=      5-min Rain = 0
KVE1 242016Z 07012KT 10/M10 A3016 RMK A01 T00971103  RH  023%=      5-min Rain = 0
KVE1 242017Z 07012KT 10/M10 A3016 RMK A01 T01031101  RH  023%=      5-min Rain = 0
KVE1 242018Z 07009KT 10/M11 A3016 RMK A01 T01021108  RH  022%=      5-min Rain = 0
KVE1 242019Z 06008KT 10/M11 A3016 RMK A01 T01001108  RH  022%=      5-min Rain = 0
KVE1 242020Z 05007KT 10/M11 A3016 RMK A01 T00951112  RH  022%=      5-min Rain = 0
KVE1 242021Z 03007KT 09/M11 A3016 RMK A01 T00941112  RH  022%=      5-min Rain = 0
KVE1 242022Z 06008KT 09/M11 A3016 RMK A01 T00931110  RH  023%=      5-min Rain = 0
KVE1 242023Z 08003KT 10/M11 A3016 RMK A01 T00951110  RH  022%=      5-min Rain = 0
KVE1 242024Z 04005KT 09/M11 A3016 RMK A01 T00941112  RH  022%=      5-min Rain = 0
KVE1 242025Z 06008KT 10/M11 A3016 RMK A01 T00951106  RH  023%=      5-min Rain = 0
KVE1 242026Z 08013KT 10/M10 A3016 RMK A01 T00981104  RH  023%=      5-min Rain = 0
KVE1 242027Z 08010KT 10/M11 A3016 RMK A01 T00981106  RH  023%=      5-min Rain = 0
KVE1 242028Z 08009KT 10/M11 A3016 RMK A01 T00981105  RH  023%=      5-min Rain = 0
KVE1 242029Z 08011KT 10/M11 A3016 RMK A01 T00981105  RH  023%=      5-min Rain = 0
KVE1 242030Z 10006KT 10/M11 A3016 RMK A01 T00981107  RH  023%=      5-min Rain = 0
KVE1 242031Z 07007G13KT 10/M11 A3015 RMK A01 T00961106  RH  023%=      5-min Rain = 0
KVE1 242032Z 07011KT 10/M10 A3016 RMK A01 T00991101  RH  023%=      5-min Rain = 0
KVE1 242033Z 06010KT 10/M11 A3015 RMK A01 T01001105  RH  022%=      5-min Rain = 0
KVE1 242034Z 06008KT 10/M11 A3015 RMK A01 T00971108  RH  022%=      5-min Rain = 0
KVE1 242035Z 07006KT 10/M11 A3015 RMK A01 T00951107  RH  023%=      5-min Rain = 0
KVE1 242036Z 07008KT 10/M10 A3015 RMK A01 T00951103  RH  024%=      5-min Rain = 0
KVE1 242037Z 06005KT 10/M10 A3015 RMK A01 T00971104  RH  023%=      5-min Rain = 0
KVE1 242038Z 07011G16KT 10/M10 A3015 RMK A01 T00981100  RH  024%=      5-min Rain = 0
KVE1 242039Z 08010KT 10/M10 A3015 RMK A01 T00991104  RH  023%=      5-min Rain = 0
KVE1 242040Z 08010KT 10/M10 A3015 RMK A01 T00981103  RH  023%=      5-min Rain = 0
KVE1 242041Z 08010KT 10/M11 A3015 RMK A01 T00991106  RH  022%=      5-min Rain = 0
KVE1 242042Z 07010KT 10/M11 A3015 RMK A01 T00991105  RH  023%=      5-min Rain = 0
KVE1 242043Z 07008KT 10/M11 A3015 RMK A01 T00991105  RH  023%=      5-min Rain = 0
KVE1 242044Z 07010KT 10/M11 A3015 RMK A01 T01001106  RH  022%=      5-min Rain = 0
KVE1 242045Z 07009KT 10/M10 A3015 RMK A01 T01001104  RH  023%=      5-min Rain = 0
KVE1 242046Z 06008KT 10/M11 A3015 RMK A01 T01001108  RH  022%=      5-min Rain = 0
KVE1 242047Z 07008KT 10/M11 A3015 RMK A01 T01011106  RH  022%=      5-min Rain = 0
KVE1 242048Z 08008KT 10/M11 A3015 RMK A01 T00991109  RH  022%=      5-min Rain = 0
KVE1 242049Z 08007KT 10/M11 A3015 RMK A01 T00991106  RH  022%=      5-min Rain = 0
KVE1 242050Z 07005KT 10/M11 A3015 RMK A01 T00991110  RH  022%=      5-min Rain = 0
KVE1 242051Z 09004KT 10/M11 A3014 RMK A01 T00971111  RH  022%=      5-min Rain = 0
KVE1 242052Z 09010KT 10/M11 A3014 RMK A01 T00961106  RH  023%=      5-min Rain = 0
KVE1 242053Z 09008KT 10/M11 A3014 RMK A01 T00991106  RH  022%=      5-min Rain = 0
KVE1 242054Z 09005KT 10/M11 A3014 RMK A01 T00991109  RH  022%=      5-min Rain = 0
KVE1 242055Z 07006KT 10/M11 A3014 RMK A01 T00981109  RH  022%=      5-min Rain = 0
KVE1 242056Z 08007KT 10/M11 A3014 RMK A01 T00981110  RH  022%=      5-min Rain = 0
KVE1 242057Z 08008KT 10/M11 A3014 RMK A01 T00981110  RH  022%=      5-min Rain = 0
KVE1 242058Z 10006KT 10/M11 A3014 RMK A01 T00991109  RH  022%=      5-min Rain = 0
KVE1 242059Z 11008KT 10/M10 A3014 RMK A01 T01011103  RH  023%=      5-min Rain = 0
KVE1 242100Z 09009KT 10/M10 A3014 RMK A01 T01041104  RH  022%=      5-min Rain = 0
KVE1 242101Z 07011KT 11/M10 A3014 RMK A01 T01051102  RH  022%=      5-min Rain = 0
KVE1 242102Z 08011KT 11/M11 A3014 RMK A01 T01061105  RH  022%=      5-min Rain = 0
KVE1 242103Z 09012KT 10/M11 A3014 RMK A01 T01031107  RH  022%=      5-min Rain = 0
KVE1 242104Z 10012KT 10/M11 A3014 RMK A01 T01031105  RH  022%=      5-min Rain = 0
KVE1 242105Z 10008KT 10/M11 A3014 RMK A01 T01031108  RH  021%=      5-min Rain = 0
KVE1 242106Z 10005KT 10/M11 A3014 RMK A01 T01001109  RH  022%=      5-min Rain = 0
KVE1 242107Z 09011KT 10/M10 A3014 RMK A01 T01021103  RH  022%=      5-min Rain = 0
KVE1 242108Z 10007G12KT 10/M11 A3014 RMK A01 T01021109  RH  021%=      5-min Rain = 0
KVE1 242109Z 08007KT 10/M11 A3014 RMK A01 T01001108  RH  022%=      5-min Rain = 0
KVE1 242110Z 07008G13KT 10/M11 A3014 RMK A01 T01001106  RH  022%=      5-min Rain = 0
KVE1 242111Z 07011KT 10/M10 A3014 RMK A01 T01031101  RH  023%=      5-min Rain = 0
KVE1 242112Z 07010KT 10/M10 A3014 RMK A01 T01041104  RH  022%=      5-min Rain = 0
KVE1 242113Z 06010KT 11/M10 A3014 RMK A01 T01051103  RH  022%=      5-min Rain = 0
KVE1 242114Z 08008KT 10/M11 A3014 RMK A01 T01031106  RH  022%=      5-min Rain = 0
KVE1 242115Z 11005G10KT 10/M11 A3014 RMK A01 T01001107  RH  022%=      5-min Rain = 0
KVE1 242116Z 10005KT 10/M11 A3014 RMK A01 T00981105  RH  023%=      5-min Rain = 0
KVE1 242117Z 08007G12KT 10/M10 A3014 RMK A01 T00991102  RH  023%=      5-min Rain = 0
KVE1 242118Z 08007KT 10/M10 A3014 RMK A01 T01001103  RH  023%=      5-min Rain = 0
KVE1 242119Z 10008KT 10/M10 A3014 RMK A01 T01001099  RH  024%=      5-min Rain = 0
KVE1 242120Z 11009KT 11/M09 A3014 RMK A01 T01051093  RH  024%=      5-min Rain = 0
KVE1 242121Z 09007KT 11/M10 A3014 RMK A01 T01081096  RH  023%=      5-min Rain = 0
KVE1 242122Z 13007KT 11/M10 A3014 RMK A01 T01071100  RH  022%=      5-min Rain = 0
KVE1 242123Z 12009KT 11/M10 A3014 RMK A01 T01071099  RH  023%=      5-min Rain = 0
KVE1 242124Z 08007KT 11/M10 A3014 RMK A01 T01081099  RH  022%=      5-min Rain = 0
KVE1 242125Z 09006KT 11/M10 A3014 RMK A01 T01061102  RH  022%=      5-min Rain = 0
KVE1 242126Z 07007KT 11/M10 A3014 RMK A01 T01051102  RH  022%=      5-min Rain = 0
KVE1 242127Z 07005KT 10/M10 A3014 RMK A01 T01041102  RH  022%=      5-min Rain = 0
KVE1 242128Z 07008KT 10/M10 A3014 RMK A01 T01041102  RH  022%=      5-min Rain = 0
KVE1 242129Z 06007KT 11/M10 A3014 RMK A01 T01051102  RH  022%=      5-min Rain = 0
KVE1 242130Z 07009G14KT 11/M10 A3014 RMK A01 T01051101  RH  022%=      5-min Rain = 0
KVE1 242131Z 09005KT 11/M10 A3014 RMK A01 T01051103  RH  022%=      5-min Rain = 0
KVE1 242132Z 08009KT 10/M10 A3014 RMK A01 T01031102  RH  022%=      5-min Rain = 0
KVE1 242133Z 08008KT 10/M10 A3014 RMK A01 T01031101  RH  023%=      5-min Rain = 0
KVE1 242134Z 08009KT 10/M10 A3014 RMK A01 T01031096  RH  023%=      5-min Rain = 0
KVE1 242135Z 09010KT 11/M10 A3014 RMK A01 T01061097  RH  023%=      5-min Rain = 0
KVE1 242136Z 09010KT 11/M10 A3014 RMK A01 T01091098  RH  022%=      5-min Rain = 0
KVE1 242137Z 10009KT 11/M10 A3014 RMK A01 T01091101  RH  022%=      5-min Rain = 0
KVE1 242138Z 13010KT 11/M10 A3014 RMK A01 T01081098  RH  022%=      5-min Rain = 0
KVE1 242139Z 13012KT 11/M10 A3014 RMK A01 T01101100  RH  022%=      5-min Rain = 0
KVE1 242140Z 12011KT 11/M10 A3014 RMK A01 T01091101  RH  022%=      5-min Rain = 0
KVE1 242141Z 11010KT 11/M10 A3014 RMK A01 T01081099  RH  022%=      5-min Rain = 0
KVE1 242142Z 12009KT 11/M10 A3014 RMK A01 T01091099  RH  022%=      5-min Rain = 0
KVE1 242143Z 13010KT 11/M10 A3014 RMK A01 T01101100  RH  022%=      5-min Rain = 0
KVE1 242144Z 12007KT 11/M11 A3014 RMK A01 T01071105  RH  021%=      5-min Rain = 0
KVE1 242145Z 13006KT 11/M10 A3014 RMK A01 T01061102  RH  022%=      5-min Rain = 0
KVE1 242146Z 14005KT 10/M11 A3014 RMK A01 T01041107  RH  022%=      5-min Rain = 0
KVE1 242147Z 12010G15KT 10/M10 A3014 RMK A01 T01041102  RH  023%=      5-min Rain = 0
KVE1 242148Z 11014KT 11/M10 A3014 RMK A01 T01061099  RH  023%=      5-min Rain = 0
KVE1 242149Z 11013KT 11/M10 A3014 RMK A01 T01071102  RH  022%=      5-min Rain = 0
KVE1 242150Z 12011KT 11/M10 A3014 RMK A01 T01061102  RH  022%=      5-min Rain = 0
KVE1 242151Z 12010KT 11/M10 A3014 RMK A01 T01061103  RH  022%=      5-min Rain = 0
KVE1 242152Z 10008KT 11/M10 A3014 RMK A01 T01061101  RH  022%=      5-min Rain = 0
KVE1 242153Z 08009KT 11/M10 A3014 RMK A01 T01091099  RH  022%=      5-min Rain = 0
KVE1 242154Z 07007KT 11/M11 A3014 RMK A01 T01071106  RH  021%=      5-min Rain = 0
KVE1 242155Z 07004KT 10/M11 A3014 RMK A01 T01041107  RH  022%=      5-min Rain = 0
KVE1 242156Z 07002KT 10/M11 A3013 RMK A01 T01021108  RH  022%=      5-min Rain = 0
KVE1 242157Z 10008KT 10/M11 A3014 RMK A01 T01011105  RH  022%=      5-min Rain = 0
KVE1 242158Z 09008G13KT 10/M10 A3014 RMK A01 T01041101  RH  023%=      5-min Rain = 0
KVE1 242159Z 08009G15KT 11/M10 A3013 RMK A01 T01071101  RH  022%=      5-min Rain = 0
KVE1 242200Z 09012KT 11/M10 A3014 RMK A01 T01091102  RH  022%=      5-min Rain = 0
KVE1 242201Z 11009KT 11/M10 A3014 RMK A01 T01081103  RH  022%=      5-min Rain = 0
KVE1 242202Z 11007KT 11/M11 A3014 RMK A01 T01081105  RH  021%=      5-min Rain = 0
KVE1 242203Z 11007KT 10/M11 A3013 RMK A01 T01041108  RH  021%=      5-min Rain = 0
KVE1 242204Z 09010KT 10/M10 A3014 RMK A01 T01041103  RH  022%=      5-min Rain = 0
KVE1 242205Z 08007KT 11/M10 A3014 RMK A01 T01071102  RH  022%=      5-min Rain = 0
KVE1 242206Z 09005KT 11/M11 A3014 RMK A01 T01071107  RH  021%=      5-min Rain = 0
KVE1 242207Z 09005KT 11/M11 A3013 RMK A01 T01051107  RH  021%=      5-min Rain = 0
KVE1 242208Z 12008KT 10/M11 A3013 RMK A01 T01041105  RH  022%=      5-min Rain = 0
KVE1 242209Z 11010KT 11/M10 A3014 RMK A01 T01071099  RH  023%=      5-min Rain = 0
KVE1 242210Z 11010KT 11/M10 A3014 RMK A01 T01091101  RH  022%=      5-min Rain = 0
KVE1 242211Z 10010KT 11/M10 A3014 RMK A01 T01091101  RH  022%=      5-min Rain = 0
KVE1 242212Z 10008KT 11/M10 A3014 RMK A01 T01081103  RH  022%=      5-min Rain = 0
KVE1 242213Z 08009KT 11/M10 A3013 RMK A01 T01081102  RH  022%=      5-min Rain = 0
KVE1 242214Z 10008KT 11/M10 A3013 RMK A01 T01081104  RH  021%=      5-min Rain = 0
KVE1 242215Z 12006KT 11/M10 A3013 RMK A01 T01061104  RH  022%=      5-min Rain = 0
KVE1 242216Z 14007KT 11/M10 A3013 RMK A01 T01061103  RH  022%=      5-min Rain = 0
KVE1 242217Z 11009G14KT 11/M10 A3013 RMK A01 T01071102  RH  022%=      5-min Rain = 0
KVE1 242218Z 10014KT 11/M10 A3014 RMK A01 T01081100  RH  022%=      5-min Rain = 0
KVE1 242219Z 10010KT 11/M10 A3014 RMK A01 T01081103  RH  022%=      5-min Rain = 0
KVE1 242220Z 10010KT 11/M10 A3014 RMK A01 T01081103  RH  022%=      5-min Rain = 0
KVE1 242221Z 09011KT 11/M11 A3014 RMK A01 T01061106  RH  021%=      5-min Rain = 0
KVE1 242222Z 09009KT 10/M11 A3014 RMK A01 T01041108  RH  021%=      5-min Rain = 0
KVE1 242223Z 08007KT 10/M11 A3013 RMK A01 T01021108  RH  022%=      5-min Rain = 0
KVE1 242224Z 09009KT 10/M10 A3013 RMK A01 T01021104  RH  022%=      5-min Rain = 0
KVE1 242225Z 10010KT 11/M10 A3013 RMK A01 T01061099  RH  023%=      5-min Rain = 0
KVE1 242226Z 11010KT 11/M10 A3013 RMK A01 T01091102  RH  022%=      5-min Rain = 0
KVE1 242227Z 10007KT 11/M10 A3013 RMK A01 T01071104  RH  022%=      5-min Rain = 0
KVE1 242228Z 11008KT 11/M10 A3013 RMK A01 T01061103  RH  022%=      5-min Rain = 0
KVE1 242229Z 10010KT 11/M10 A3013 RMK A01 T01071103  RH  022%=      5-min Rain = 0
KVE1 242230Z 10012KT 11/M10 A3013 RMK A01 T01071104  RH  022%=      5-min Rain = 0
KVE1 242231Z 09010KT 11/M10 A3013 RMK A01 T01071103  RH  022%=      5-min Rain = 0
KVE1 242232Z 09007KT 11/M11 A3013 RMK A01 T01081105  RH  021%=      5-min Rain = 0
KVE1 242233Z 10009KT 11/M10 A3013 RMK A01 T01081102  RH  022%=      5-min Rain = 0
KVE1 242234Z 09008KT 11/M11 A3013 RMK A01 T01071106  RH  021%=      5-min Rain = 0
KVE1 242235Z 08008KT 11/M11 A3013 RMK A01 T01071105  RH  021%=      5-min Rain = 0
KVE1 242236Z 10011KT 11/M11 A3013 RMK A01 T01071105  RH  021%=      5-min Rain = 0
KVE1 242237Z 09013KT 11/M10 A3013 RMK A01 T01071104  RH  022%=      5-min Rain = 0
KVE1 242238Z 11014KT 11/M10 A3013 RMK A01 T01081102  RH  022%=      5-min Rain = 0
KVE1 242239Z 10012KT 11/M10 A3013 RMK A01 T01081101  RH  022%=      5-min Rain = 0
KVE1 242240Z 10012KT 11/M10 A3013 RMK A01 T01101097  RH  022%=      5-min Rain = 0
KVE1 242241Z 09011KT 11/M10 A3013 RMK A01 T01111103  RH  021%=      5-min Rain = 0
KVE1 242242Z 09011KT 11/M10 A3013 RMK A01 T01091103  RH  021%=      5-min Rain = 0
KVE1 242243Z 11009KT 11/M11 A3013 RMK A01 T01071107  RH  021%=      5-min Rain = 0
KVE1 242244Z 10008KT 11/M11 A3013 RMK A01 T01051106  RH  022%=      5-min Rain = 0
KVE1 242245Z 09008KT 11/M10 A3013 RMK A01 T01061102  RH  022%=      5-min Rain = 0
KVE1 242246Z 11010KT 11/M10 A3013 RMK A01 T01081101  RH  022%=      5-min Rain = 0
KVE1 242247Z 11010KT 11/M10 A3013 RMK A01 T01081104  RH  021%=      5-min Rain = 0
KVE1 242248Z 10010KT 11/M11 A3013 RMK A01 T01081105  RH  021%=      5-min Rain = 0
KVE1 242249Z 10008KT 11/M11 A3013 RMK A01 T01061106  RH  021%=      5-min Rain = 0
KVE1 242250Z 11008KT 11/M10 A3013 RMK A01 T01061104  RH  022%=      5-min Rain = 0
KVE1 242251Z 11008KT 11/M10 A3013 RMK A01 T01071103  RH  022%=      5-min Rain = 0
KVE1 242252Z 10008KT 11/M10 A3013 RMK A01 T01081104  RH  021%=      5-min Rain = 0
KVE1 242253Z 09009KT 11/M11 A3013 RMK A01 T01081105  RH  021%=      5-min Rain = 0
KVE1 242254Z 10008KT 11/M10 A3013 RMK A01 T01071104  RH  021%=      5-min Rain = 0
KVE1 242255Z 09009KT 11/M10 A3013 RMK A01 T01081101  RH  022%=      5-min Rain = 0
KVE1 242256Z 08010KT 11/M10 A3013 RMK A01 T01091104  RH  021%=      5-min Rain = 0
KVE1 242257Z 09013KT 11/M10 A3013 RMK A01 T01081101  RH  022%=      5-min Rain = 0
KVE1 242258Z 09012KT 11/M10 A3012 RMK A01 T01091101  RH  022%=      5-min Rain = 0
KVE1 242259Z 09011KT 11/M11 A3012 RMK A01 T01081105  RH  021%=      5-min Rain = 0
KVE1 242300Z 08012KT 11/M10 A3013 RMK A01 T01071102  RH  022%=      5-min Rain = 0
KVE1 242301Z 09013KT 11/M10 A3013 RMK A01 T01071103  RH  022%=      5-min Rain = 0
KVE1 242302Z 12009KT 11/M10 A3013 RMK A01 T01071103  RH  022%=      5-min Rain = 0
KVE1 242303Z 12009KT 11/M10 A3013 RMK A01 T01071102  RH  022%=      5-min Rain = 0
KVE1 242304Z 12008KT 11/M10 A3013 RMK A01 T01081102  RH  022%=      5-min Rain = 0
KVE1 242305Z 13006KT 11/M10 A3013 RMK A01 T01081101  RH  022%=      5-min Rain = 0
KVE1 242306Z 14006KT 11/M10 A3013 RMK A01 T01091104  RH  021%=      5-min Rain = 0
KVE1 242307Z 15005KT 11/M11 A3012 RMK A01 T01071106  RH  021%=      5-min Rain = 0
KVE1 242308Z 14005KT 11/M11 A3012 RMK A01 T01071105  RH  021%=      5-min Rain = 0
KVE1 242309Z 13008KT 11/M10 A3012 RMK A01 T01071104  RH  022%=      5-min Rain = 0
KVE1 242310Z 12009KT 11/M10 A3012 RMK A01 T01081101  RH  022%=      5-min Rain = 0
KVE1 242311Z 11008KT 11/M10 A3012 RMK A01 T01071103  RH  022%=      5-min Rain = 0
KVE1 242312Z 11008KT 11/M10 A3012 RMK A01 T01071100  RH  022%=      5-min Rain = 0
KVE1 242313Z 11006KT 11/M10 A3012 RMK A01 T01071101  RH  022%=      5-min Rain = 0
KVE1 242314Z 10005KT 11/M10 A3012 RMK A01 T01071104  RH  022%=      5-min Rain = 0
KVE1 242315Z 11007KT 11/M10 A3013 RMK A01 T01061102  RH  022%=      5-min Rain = 0
KVE1 242316Z 09007KT 11/M10 A3013 RMK A01 T01061101  RH  022%=      5-min Rain = 0
KVE1 242317Z 13007KT 11/M10 A3013 RMK A01 T01061099  RH  023%=      5-min Rain = 0
KVE1 242318Z 13006KT 11/M10 A3013 RMK A01 T01071101  RH  022%=      5-min Rain = 0
KVE1 242319Z 15005KT 11/M10 A3013 RMK A01 T01071104  RH  022%=      5-min Rain = 0
KVE1 242320Z 11004KT 11/M10 A3013 RMK A01 T01061104  RH  022%=      5-min Rain = 0
KVE1 242321Z 11007KT 11/M10 A3013 RMK A01 T01061102  RH  022%=      5-min Rain = 0
KVE1 242322Z 12010KT 11/M10 A3013 RMK A01 T01071097  RH  023%=      5-min Rain = 0
KVE1 242323Z 12010KT 11/M10 A3013 RMK A01 T01071101  RH  022%=      5-min Rain = 0
KVE1 242324Z 13010KT 11/M10 A3013 RMK A01 T01051103  RH  022%=      5-min Rain = 0
KVE1 242325Z 13010KT 10/M10 A3013 RMK A01 T01041103  RH  022%=      5-min Rain = 0
KVE1 242326Z 11010KT 10/M10 A3013 RMK A01 T01041100  RH  023%=      5-min Rain = 0
KVE1 242327Z 12010KT 10/M10 A3013 RMK A01 T01041099  RH  023%=      5-min Rain = 0
KVE1 242328Z 12009KT 10/M10 A3013 RMK A01 T01041103  RH  022%=      5-min Rain = 0
KVE1 242329Z 13008KT 10/M10 A3013 RMK A01 T01031104  RH  022%=      5-min Rain = 0
KVE1 242330Z 12008KT 10/M10 A3013 RMK A01 T01031099  RH  023%=      5-min Rain = 0
KVE1 242331Z 11007KT 10/M10 A3013 RMK A01 T01041101  RH  023%=      5-min Rain = 0
KVE1 242332Z 11007KT 10/M10 A3013 RMK A01 T01031099  RH  023%=      5-min Rain = 0
KVE1 242333Z 11006KT 10/M10 A3013 RMK A01 T01041101  RH  023%=      5-min Rain = 0
KVE1 242334Z 12008KT 10/M10 A3013 RMK A01 T01041100  RH  023%=      5-min Rain = 0
KVE1 242335Z 11010KT 10/M10 A3013 RMK A01 T01041100  RH  023%=      5-min Rain = 0
KVE1 242336Z 10008KT 10/M10 A3013 RMK A01 T01031102  RH  023%=      5-min Rain = 0
KVE1 242337Z 09007KT 10/M10 A3013 RMK A01 T01021103  RH  023%=      5-min Rain = 0
KVE1 242338Z 09008KT 10/M10 A3013 RMK A01 T01011100  RH  023%=      5-min Rain = 0
KVE1 242339Z 10008KT 10/M10 A3013 RMK A01 T01021098  RH  023%=      5-min Rain = 0
KVE1 242340Z 11007KT 10/M10 A3013 RMK A01 T01021098  RH  023%=      5-min Rain = 0
KVE1 242341Z 10008KT 10/M10 A3013 RMK A01 T01021099  RH  023%=      5-min Rain = 0
KVE1 242342Z 11008KT 10/M10 A3013 RMK A01 T01021100  RH  023%=      5-min Rain = 0
KVE1 242343Z 12008KT 10/M10 A3013 RMK A01 T01021100  RH  023%=      5-min Rain = 0
KVE1 242344Z 12009KT 10/M10 A3013 RMK A01 T01011100  RH  023%=      5-min Rain = 0
KVE1 242345Z 11008KT 10/M10 A3013 RMK A01 T01011100  RH  023%=      5-min Rain = 0
KVE1 242346Z 10009KT 10/M10 A3013 RMK A01 T01011099  RH  023%=      5-min Rain = 0
KVE1 242347Z 11009KT 10/M10 A3013 RMK A01 T01011096  RH  024%=      5-min Rain = 0
KVE1 242348Z 10010KT 10/M10 A3013 RMK A01 T01011096  RH  024%=      5-min Rain = 0
KVE1 242349Z 10011KT 10/M10 A3013 RMK A01 T01001096  RH  024%=      5-min Rain = 0
KVE1 242350Z 10009KT 10/M10 A3014 RMK A01 T01001098  RH  024%=      5-min Rain = 0
KVE1 242351Z 10008KT 10/M10 A3014 RMK A01 T00991097  RH  024%=      5-min Rain = 0
KVE1 242352Z 11010KT 10/M10 A3014 RMK A01 T00991096  RH  024%=      5-min Rain = 0
KVE1 242353Z 11010KT 10/M10 A3014 RMK A01 T00981097  RH  024%=      5-min Rain = 0
KVE1 242354Z 11009KT 10/M10 A3014 RMK A01 T00981098  RH  024%=      5-min Rain = 0
KVE1 242355Z 10009KT 10/M10 A3014 RMK A01 T00981095  RH  025%=      5-min Rain = 0
KVE1 242356Z 10010KT 10/M10 A3014 RMK A01 T00981095  RH  025%=      5-min Rain = 0
KVE1 242357Z 10010KT 10/M10 A3014 RMK A01 T00971096  RH  025%=      5-min Rain = 0
KVE1 242358Z 10009KT 10/M10 A3014 RMK A01 T00961097  RH  025%=      5-min Rain = 0
KVE1 242359Z 10010KT 10/M10 A3014 RMK A01 T00961098  RH  024%=      5-min Rain = 0
KVE1 250000Z 10010KT 10/M10 A3014 RMK A01 T00961097  RH  025%=      5-min Rain = 0
KVE1 250001Z 10009KT 10/M10 A3014 RMK A01 T00951097  RH  025%=      5-min Rain = 0
KVE1 250002Z 10009KT 10/M10 A3014 RMK A01 T00951095  RH  025%=      5-min Rain = 0
KVE1 250003Z 10009KT 09/M09 A3014 RMK A01 T00941094  RH  025%=      5-min Rain = 0
KVE1 250004Z 10008KT 09/M09 A3014 RMK A01 T00941094  RH  025%=      5-min Rain = 0
KVE1 250005Z 09007KT 09/M09 A3014 RMK A01 T00931092  RH  026%=      5-min Rain = 0
KVE1 250006Z 10008KT 09/M09 A3015 RMK A01 T00931092  RH  026%=      5-min Rain = 0
KVE1 250007Z 10008KT 09/M09 A3014 RMK A01 T00921093  RH  026%=      5-min Rain = 0
KVE1 250008Z 10008KT 09/M09 A3014 RMK A01 T00921092  RH  026%=      5-min Rain = 0
KVE1 250009Z 09008KT 09/M09 A3014 RMK A01 T00911092  RH  026%=      5-min Rain = 0
KVE1 250010Z 09008KT 09/M09 A3014 RMK A01 T00901092  RH  027%=      5-min Rain = 0
KVE1 250011Z 09008KT 09/M09 A3014 RMK A01 T00901093  RH  027%=      5-min Rain = 0
KVE1 250012Z 08007KT 09/M09 A3014 RMK A01 T00891092  RH  027%=      5-min Rain = 0
KVE1 250013Z 08009KT 09/M09 A3014 RMK A01 T00881091  RH  027%=      5-min Rain = 0
KVE1 250014Z 09009KT 09/M09 A3014 RMK A01 T00871092  RH  027%=      5-min Rain = 0
KVE1 250015Z 09010KT 09/M09 A3014 RMK A01 T00871092  RH  027%=      5-min Rain = 0
KVE1 250016Z 09010KT 09/M10 A3014 RMK A01 T00861095  RH  027%=      5-min Rain = 0
KVE1 250017Z 09009KT 09/M10 A3015 RMK A01 T00871095  RH  027%=      5-min Rain = 0
KVE1 250018Z 09009KT 09/M09 A3015 RMK A01 T00861094  RH  027%=      5-min Rain = 0
KVE1 250019Z 10007KT 09/M09 A3015 RMK A01 T00851093  RH  027%=      5-min Rain = 0
KVE1 250020Z 10007KT 08/M09 A3015 RMK A01 T00841091  RH  028%=      5-min Rain = 0
KVE1 250021Z 10007KT 08/M09 A3015 RMK A01 T00811089  RH  029%=      5-min Rain = 0
KVE1 250022Z 10007KT 08/M09 A3015 RMK A01 T00791088  RH  030%=      5-min Rain = 0
KVE1 250023Z 10007KT 08/M09 A3015 RMK A01 T00771087  RH  030%=      5-min Rain = 0
KVE1 250024Z 10007KT 08/M09 A3015 RMK A01 T00751086  RH  031%=      5-min Rain = 0
KVE1 250025Z 10007KT 07/M09 A3015 RMK A01 T00731086  RH  031%=      5-min Rain = 0
KVE1 250026Z 10007KT 07/M09 A3015 RMK A01 T00721085  RH  032%=      5-min Rain = 0
KVE1 250027Z 10007KT 07/M09 A3015 RMK A01 T00701085  RH  032%=      5-min Rain = 0
KVE1 250028Z 10008KT 07/M09 A3015 RMK A01 T00691086  RH  032%=      5-min Rain = 0
KVE1 250029Z 10008KT 07/M09 A3015 RMK A01 T00681087  RH  032%=      5-min Rain = 0
KVE1 250030Z 10007KT 07/M09 A3015 RMK A01 T00671087  RH  032%=      5-min Rain = 0
KVE1 250031Z 10008KT 07/M09 A3015 RMK A01 T00651087  RH  033%=      5-min Rain = 0
KVE1 250032Z 10008KT 07/M09 A3015 RMK A01 T00651088  RH  033%=      5-min Rain = 0
KVE1 250033Z 10008KT 07/M09 A3015 RMK A01 T00651088  RH  033%=      5-min Rain = 0
KVE1 250034Z 10009KT 06/M09 A3015 RMK A01 T00631087  RH  033%=      5-min Rain = 0
KVE1 250035Z 10008KT 06/M09 A3015 RMK A01 T00621087  RH  033%=      5-min Rain = 0
KVE1 250036Z 10008KT 06/M09 A3015 RMK A01 T00601087  RH  034%=      5-min Rain = 0
KVE1 250037Z 10008KT 06/M09 A3015 RMK A01 T00581087  RH  034%=      5-min Rain = 0
KVE1 250038Z 10008KT 06/M09 A3015 RMK A01 T00561087  RH  035%=      5-min Rain = 0
KVE1 250039Z 10008KT 05/M09 A3015 RMK A01 T00541087  RH  035%=      5-min Rain = 0
KVE1 250040Z 10008KT 05/M09 A3015 RMK A01 T00541087  RH  036%=      5-min Rain = 0
KVE1 250041Z 09008KT 05/M09 A3015 RMK A01 T00521087  RH  036%=      5-min Rain = 0
KVE1 250042Z 09008KT 05/M09 A3015 RMK A01 T00501087  RH  036%=      5-min Rain = 0
KVE1 250043Z 09008KT 05/M09 A3015 RMK A01 T00471087  RH  037%=      5-min Rain = 0
KVE1 250044Z 09008KT 05/M09 A3015 RMK A01 T00451087  RH  038%=      5-min Rain = 0
KVE1 250045Z 09009KT 04/M09 A3015 RMK A01 T00431087  RH  038%=      5-min Rain = 0
KVE1 250046Z 09009KT 04/M09 A3015 RMK A01 T00411088  RH  039%=      5-min Rain = 0
KVE1 250047Z 10009KT 04/M09 A3015 RMK A01 T00391087  RH  039%=      5-min Rain = 0
KVE1 250048Z 09009KT 04/M09 A3015 RMK A01 T00381087  RH  039%=      5-min Rain = 0
KVE1 250049Z 09009KT 04/M09 A3016 RMK A01 T00381087  RH  040%=      5-min Rain = 0
KVE1 250050Z 09009KT 04/M09 A3016 RMK A01 T00381087  RH  040%=      5-min Rain = 0
KVE1 250051Z 09009KT 04/M09 A3016 RMK A01 T00371088  RH  040%=      5-min Rain = 0
KVE1 250052Z 09010KT 04/M09 A3016 RMK A01 T00361088  RH  040%=      5-min Rain = 0
KVE1 250053Z 09010KT 04/M09 A3016 RMK A01 T00351088  RH  040%=      5-min Rain = 0
KVE1 250054Z 09010KT 03/M09 A3016 RMK A01 T00341088  RH  040%=      5-min Rain = 0
KVE1 250055Z 09009KT 03/M09 A3016 RMK A01 T00341088  RH  040%=      5-min Rain = 0
KVE1 250056Z 09009KT 03/M09 A3016 RMK A01 T00331089  RH  040%=      5-min Rain = 0
KVE1 250057Z 09009KT 03/M09 A3016 RMK A01 T00321089  RH  041%=      5-min Rain = 0
KVE1 250058Z 09009KT 03/M09 A3016 RMK A01 T00311089  RH  041%=      5-min Rain = 0
KVE1 250059Z 09009KT 03/M09 A3016 RMK A01 T00301089  RH  041%=      5-min Rain = 0
KVE1 250100Z 09009KT 03/M09 A3016 RMK A01 T00291089  RH  041%=      5-min Rain = 0
KVE1 250101Z 09009KT 03/M09 A3016 RMK A01 T00281089  RH  042%=      5-min Rain = 0
KVE1 250102Z 09009KT 03/M09 A3016 RMK A01 T00261089  RH  042%=      5-min Rain = 0
KVE1 250103Z 09008KT 02/M09 A3016 RMK A01 T00231089  RH  043%=      5-min Rain = 0
KVE1 250104Z 09008KT 02/M09 A3016 RMK A01 T00201089  RH  044%=      5-min Rain = 0
KVE1 250105Z 08008KT 02/M09 A3016 RMK A01 T00181089  RH  045%=      5-min Rain = 0
KVE1 250106Z 08008KT 02/M09 A3016 RMK A01 T00161090  RH  045%=      5-min Rain = 0
KVE1 250107Z 08009KT 02/M09 A3016 RMK A01 T00151089  RH  046%=      5-min Rain = 0
KVE1 250108Z 08009KT 02/M09 A3016 RMK A01 T00151090  RH  046%=      5-min Rain = 0
KVE1 250109Z 08009KT 01/M09 A3016 RMK A01 T00141089  RH  046%=      5-min Rain = 0
KVE1 250110Z 08009KT 01/M09 A3016 RMK A01 T00131090  RH  046%=      5-min Rain = 0
KVE1 250111Z 08009KT 01/M09 A3016 RMK A01 T00131089  RH  047%=      5-min Rain = 0
KVE1 250112Z 08009KT 01/M09 A3016 RMK A01 T00121089  RH  047%=      5-min Rain = 0
KVE1 250113Z 08009KT 01/M09 A3016 RMK A01 T00121089  RH  047%=      5-min Rain = 0
KVE1 250114Z 08009KT 01/M09 A3016 RMK A01 T00131088  RH  047%=      5-min Rain = 0
KVE1 250115Z 08009KT 01/M09 A3016 RMK A01 T00141088  RH  047%=      5-min Rain = 0
KVE1 250116Z 08010KT 02/M09 A3016 RMK A01 T00151087  RH  047%=      5-min Rain = 0
KVE1 250117Z 08010KT 02/M09 A3016 RMK A01 T00151087  RH  046%=      5-min Rain = 0
KVE1 250118Z 08010KT 02/M09 A3016 RMK A01 T00161087  RH  046%=      5-min Rain = 0
KVE1 250119Z 08010KT 02/M09 A3016 RMK A01 T00161088  RH  046%=      5-min Rain = 0
KVE1 250120Z 08010KT 02/M09 A3016 RMK A01 T00161088  RH  046%=      5-min Rain = 0
KVE1 250121Z 08009KT 02/M09 A3016 RMK A01 T00171088  RH  046%=      5-min Rain = 0
KVE1 250122Z 08008KT 02/M09 A3016 RMK A01 T00161087  RH  046%=      5-min Rain = 0
KVE1 250123Z 08008KT 01/M09 A3016 RMK A01 T00141088  RH  047%=      5-min Rain = 0
KVE1 250124Z 08009KT 01/M09 A3016 RMK A01 T00141089  RH  047%=      5-min Rain = 0
KVE1 250125Z 09008KT 01/M09 A3016 RMK A01 T00131089  RH  046%=      5-min Rain = 0
KVE1 250126Z 08009KT 01/M09 A3017 RMK A01 T00111089  RH  047%=      5-min Rain = 0
KVE1 250127Z 08009KT 01/M09 A3017 RMK A01 T00101089  RH  048%=      5-min Rain = 0
KVE1 250128Z 08009KT 01/M09 A3017 RMK A01 T00101089  RH  048%=      5-min Rain = 0
KVE1 250129Z 08009KT 01/M09 A3016 RMK A01 T00101089  RH  048%=      5-min Rain = 0
KVE1 250130Z 09008KT 01/M09 A3016 RMK A01 T00101088  RH  048%=      5-min Rain = 0
KVE1 250131Z 09008KT 01/M09 A3016 RMK A01 T00081088  RH  048%=      5-min Rain = 0
KVE1 250132Z 09009KT 01/M09 A3017 RMK A01 T00071089  RH  049%=      5-min Rain = 0
KVE1 250133Z 09009KT 01/M09 A3017 RMK A01 T00071090  RH  049%=      5-min Rain = 0
KVE1 250134Z 09009KT 01/M09 A3017 RMK A01 T00061089  RH  049%=      5-min Rain = 0
KVE1 250135Z 09010KT 01/M09 A3017 RMK A01 T00061089  RH  049%=      5-min Rain = 0
KVE1 250136Z 09010KT 01/M09 A3017 RMK A01 T00061089  RH  049%=      5-min Rain = 0
KVE1 250137Z 09010KT 01/M09 A3017 RMK A01 T00061089  RH  049%=      5-min Rain = 0
KVE1 250138Z 09009KT 01/M09 A3017 RMK A01 T00071089  RH  049%=      5-min Rain = 0
KVE1 250139Z 09009KT 01/M09 A3017 RMK A01 T00071089  RH  048%=      5-min Rain = 0
KVE1 250140Z 09010KT 01/M09 A3017 RMK A01 T00081090  RH  048%=      5-min Rain = 0
KVE1 250141Z 09009KT 01/M09 A3017 RMK A01 T00081091  RH  048%=      5-min Rain = 0
KVE1 250142Z 09009KT 01/M09 A3017 RMK A01 T00081091  RH  048%=      5-min Rain = 0
KVE1 250143Z 09009KT 01/M09 A3017 RMK A01 T00071091  RH  048%=      5-min Rain = 0
KVE1 250144Z 09010KT 01/M09 A3017 RMK A01 T00051092  RH  048%=      5-min Rain = 0
KVE1 250145Z 09010KT 00/M09 A3017 RMK A01 T00041092  RH  049%=      5-min Rain = 0
KVE1 250146Z 10011KT 00/M09 A3017 RMK A01 T00031092  RH  049%=      5-min Rain = 0
KVE1 250147Z 10011KT 00/M09 A3017 RMK A01 T00031092  RH  049%=      5-min Rain = 0
KVE1 250148Z 09011KT 00/M09 A3017 RMK A01 T00031092  RH  049%=      5-min Rain = 0
KVE1 250149Z 09011KT 00/M09 A3017 RMK A01 T00041092  RH  049%=      5-min Rain = 0
KVE1 250150Z 09010KT 01/M09 A3017 RMK A01 T00051091  RH  048%=      5-min Rain = 0
KVE1 250151Z 09010KT 01/M09 A3017 RMK A01 T00051091  RH  048%=      5-min Rain = 0
KVE1 250152Z 09010KT 00/M09 A3017 RMK A01 T00041092  RH  049%=      5-min Rain = 0
KVE1 250153Z 09010KT 00/M09 A3017 RMK A01 T00021092  RH  049%=      5-min Rain = 0
KVE1 250154Z 09010KT 00/M09 A3017 RMK A01 T00021092  RH  049%=      5-min Rain = 0
KVE1 250155Z 09010KT 00/M09 A3017 RMK A01 T00011092  RH  050%=      5-min Rain = 0
KVE1 250156Z 09010KT 00/09 A3017 RMK A01 T00-00-92  RH  050%=      5-min Rain = 0
KVE1 250157Z 09010KT M00/M09 A3017 RMK A01 T10011092  RH  051%=      5-min Rain = 0
KVE1 250158Z 09011KT M00/M09 A3017 RMK A01 T10021091  RH  051%=      5-min Rain = 0
KVE1 250159Z 09011KT M00/M09 A3017 RMK A01 T10021091  RH  051%=      5-min Rain = 0
KVE1 250200Z 08011KT M00/M09 A3017 RMK A01 T10021091  RH  051%=      5-min Rain = 0
KVE1 250201Z 08010KT M00/M09 A3017 RMK A01 T10011091  RH  051%=      5-min Rain = 0
KVE1 250202Z 09010KT 00/M09 A3017 RMK A01 T00011090  RH  050%=      5-min Rain = 0
KVE1 250203Z 09010KT 00/M09 A3017 RMK A01 T00021090  RH  050%=      5-min Rain = 0
KVE1 250204Z 09010KT 00/M09 A3017 RMK A01 T00021090  RH  050%=      5-min Rain = 0
KVE1 250205Z 09010KT 00/M09 A3017 RMK A01 T00021090  RH  050%=      5-min Rain = 0
KVE1 250206Z 09010KT 00/M09 A3017 RMK A01 T00031090  RH  050%=      5-min Rain = 0
KVE1 250207Z 09010KT 00/M09 A3017 RMK A01 T00041090  RH  049%=      5-min Rain = 0
KVE1 250208Z 09010KT 01/M09 A3017 RMK A01 T00051090  RH  049%=      5-min Rain = 0
KVE1 250209Z 09010KT 01/M09 A3017 RMK A01 T00061089  RH  049%=      5-min Rain = 0
KVE1 250210Z 09010KT 01/M09 A3017 RMK A01 T00071089  RH  049%=      5-min Rain = 0
KVE1 250211Z 09010KT 01/M09 A3017 RMK A01 T00071089  RH  049%=      5-min Rain = 0
KVE1 250212Z 09010KT 01/M09 A3017 RMK A01 T00071089  RH  049%=      5-min Rain = 0
KVE1 250213Z 09010KT 01/M09 A3017 RMK A01 T00071089  RH  049%=      5-min Rain = 0
KVE1 250214Z 09010KT 01/M09 A3017 RMK A01 T00071088  RH  049%=      5-min Rain = 0
KVE1 250215Z 09009KT 01/M09 A3017 RMK A01 T00071088  RH  049%=      5-min Rain = 0
KVE1 250216Z 09009KT 01/M09 A3017 RMK A01 T00081088  RH  049%=      5-min Rain = 0
KVE1 250217Z 09010KT 01/M09 A3017 RMK A01 T00081088  RH  049%=      5-min Rain = 0
KVE1 250218Z 09010KT 01/M09 A3017 RMK A01 T00091087  RH  049%=      5-min Rain = 0
KVE1 250219Z 09010KT 01/M09 A3017 RMK A01 T00091087  RH  048%=      5-min Rain = 0
KVE1 250220Z 09010KT 01/M09 A3017 RMK A01 T00111087  RH  048%=      5-min Rain = 0
KVE1 250221Z 09010KT 01/M09 A3017 RMK A01 T00121087  RH  048%=      5-min Rain = 0
KVE1 250222Z 09010KT 01/M09 A3017 RMK A01 T00121087  RH  048%=      5-min Rain = 0
KVE1 250223Z 09010KT 01/M09 A3017 RMK A01 T00121087  RH  048%=      5-min Rain = 0
KVE1 250224Z 09010KT 01/M09 A3017 RMK A01 T00131087  RH  047%=      5-min Rain = 0
KVE1 250225Z 09010KT 01/M09 A3017 RMK A01 T00131087  RH  047%=      5-min Rain = 0
KVE1 250226Z 09010KT 01/M09 A3017 RMK A01 T00141087  RH  047%=      5-min Rain = 0
KVE1 250227Z 09010KT 01/M09 A3017 RMK A01 T00141087  RH  047%=      5-min Rain = 0
KVE1 250228Z 09011KT 02/M09 A3017 RMK A01 T00151087  RH  047%=      5-min Rain = 0
KVE1 250229Z 09011KT 02/M09 A3017 RMK A01 T00151087  RH  047%=      5-min Rain = 0
KVE1 250230Z 09011KT 02/M09 A3017 RMK A01 T00161087  RH  046%=      5-min Rain = 0
KVE1 250231Z 09011KT 02/M09 A3017 RMK A01 T00161087  RH  046%=      5-min Rain = 0
KVE1 250232Z 09011KT 02/M09 A3017 RMK A01 T00171087  RH  046%=      5-min Rain = 0
KVE1 250233Z 09011KT 02/M09 A3017 RMK A01 T00171087  RH  046%=      5-min Rain = 0
KVE1 250234Z 09011KT 02/M09 A3017 RMK A01 T00181087  RH  046%=      5-min Rain = 0
KVE1 250235Z 09011KT 02/M09 A3017 RMK A01 T00191087  RH  046%=      5-min Rain = 0
KVE1 250236Z 09011KT 02/M09 A3017 RMK A01 T00201087  RH  045%=      5-min Rain = 0
KVE1 250237Z 09010KT 02/M09 A3017 RMK A01 T00201087  RH  045%=      5-min Rain = 0
KVE1 250238Z 09010KT 02/M09 A3017 RMK A01 T00201087  RH  045%=      5-min Rain = 0
KVE1 250239Z 09010KT 02/M09 A3017 RMK A01 T00201087  RH  045%=      5-min Rain = 0
KVE1 250240Z 09010KT 02/M09 A3017 RMK A01 T00201087  RH  045%=      5-min Rain = 0
KVE1 250241Z 09010KT 02/M09 A3017 RMK A01 T00201087  RH  045%=      5-min Rain = 0
KVE1 250242Z 09010KT 02/M09 A3017 RMK A01 T00191087  RH  045%=      5-min Rain = 0
KVE1 250243Z 09010KT 02/M09 A3017 RMK A01 T00181088  RH  045%=      5-min Rain = 0
KVE1 250244Z 09010KT 02/M09 A3017 RMK A01 T00181088  RH  045%=      5-min Rain = 0
KVE1 250245Z 09010KT 02/M09 A3017 RMK A01 T00171088  RH  046%=      5-min Rain = 0
KVE1 250246Z 09010KT 02/M09 A3017 RMK A01 T00171088  RH  046%=      5-min Rain = 0
KVE1 250247Z 09010KT 02/M09 A3017 RMK A01 T00171088  RH  046%=      5-min Rain = 0
KVE1 250248Z 09010KT 02/M09 A3017 RMK A01 T00161088  RH  046%=      5-min Rain = 0
KVE1 250249Z 09010KT 02/M09 A3018 RMK A01 T00161088  RH  046%=      5-min Rain = 0
KVE1 250250Z 09010KT 02/M09 A3018 RMK A01 T00151088  RH  046%=      5-min Rain = 0
KVE1 250251Z 09010KT 02/M09 A3018 RMK A01 T00151088  RH  046%=      5-min Rain = 0
KVE1 250252Z 09010KT 01/M09 A3018 RMK A01 T00141088  RH  046%=      5-min Rain = 0
KVE1 250253Z 09010KT 01/M09 A3018 RMK A01 T00141088  RH  047%=      5-min Rain = 0
KVE1 250254Z 09010KT 01/M09 A3018 RMK A01 T00131088  RH  047%=      5-min Rain = 0
KVE1 250255Z 09010KT 01/M09 A3018 RMK A01 T00121088  RH  047%=      5-min Rain = 0
KVE1 250256Z 09010KT 01/M09 A3018 RMK A01 T00121088  RH  047%=      5-min Rain = 0
KVE1 250257Z 09010KT 01/M09 A3018 RMK A01 T00121088  RH  047%=      5-min Rain = 0
KVE1 250258Z 09011KT 01/M09 A3018 RMK A01 T00121088  RH  047%=      5-min Rain = 0
KVE1 250259Z 10010KT 01/M09 A3018 RMK A01 T00121088  RH  047%=      5-min Rain = 0
KVE1 250300Z 09010KT 01/M09 A3018 RMK A01 T00121088  RH  047%=      5-min Rain = 0
KVE1 250301Z 09010KT 01/M09 A3018 RMK A01 T00121088  RH  047%=      5-min Rain = 0
KVE1 250302Z 09010KT 01/M09 A3018 RMK A01 T00111088  RH  048%=      5-min Rain = 0
KVE1 250303Z 09010KT 01/M09 A3018 RMK A01 T00101088  RH  048%=      5-min Rain = 0
KVE1 250304Z 09010KT 01/M09 A3018 RMK A01 T00091088  RH  048%=      5-min Rain = 0
KVE1 250305Z 10010KT 01/M09 A3018 RMK A01 T00081088  RH  048%=      5-min Rain = 0
KVE1 250306Z 10010KT 01/M09 A3018 RMK A01 T00071088  RH  049%=      5-min Rain = 0
KVE1 250307Z 10010KT 01/M09 A3018 RMK A01 T00071088  RH  049%=      5-min Rain = 0
KVE1 250308Z 10010KT 01/M09 A3018 RMK A01 T00061088  RH  049%=      5-min Rain = 0
KVE1 250309Z 10010KT 01/M09 A3018 RMK A01 T00061088  RH  049%=      5-min Rain = 0
KVE1 250310Z 10010KT 01/M09 A3018 RMK A01 T00061088  RH  049%=      5-min Rain = 0
KVE1 250311Z 10010KT 01/M09 A3018 RMK A01 T00061088  RH  049%=      5-min Rain = 0
KVE1 250312Z 09010KT 01/M09 A3018 RMK A01 T00061088  RH  049%=      5-min Rain = 0
KVE1 250313Z 09010KT 01/M09 A3018 RMK A01 T00061089  RH  049%=      5-min Rain = 0
KVE1 250314Z 09010KT 01/M09 A3018 RMK A01 T00051089  RH  049%=      5-min Rain = 0
KVE1 250315Z 09010KT 01/M09 A3018 RMK A01 T00051089  RH  049%=      5-min Rain = 0
KVE1 250316Z 09010KT 00/M09 A3018 RMK A01 T00041089  RH  050%=      5-min Rain = 0
KVE1 250317Z 09010KT 00/M09 A3018 RMK A01 T00041089  RH  050%=      5-min Rain = 0
KVE1 250318Z 09010KT 00/M09 A3018 RMK A01 T00031089  RH  050%=      5-min Rain = 0
KVE1 250319Z 09010KT 00/M09 A3018 RMK A01 T00031089  RH  050%=      5-min Rain = 0
KVE1 250320Z 09010KT 00/M09 A3018 RMK A01 T00021089  RH  050%=      5-min Rain = 0
KVE1 250321Z 09010KT 00/M09 A3018 RMK A01 T00021089  RH  050%=      5-min Rain = 0
KVE1 250322Z 10010KT 00/M09 A3018 RMK A01 T00021089  RH  050%=      5-min Rain = 0
KVE1 250323Z 09010KT 00/M09 A3018 RMK A01 T00031089  RH  050%=      5-min Rain = 0
KVE1 250324Z 09010KT 00/M09 A3018 RMK A01 T00031089  RH  050%=      5-min Rain = 0
KVE1 250325Z 09010KT 00/M09 A3018 RMK A01 T00031089  RH  050%=      5-min Rain = 0
KVE1 250326Z 09010KT 00/M09 A3018 RMK A01 T00031089  RH  050%=      5-min Rain = 0
KVE1 250327Z 09010KT 00/M09 A3018 RMK A01 T00031089  RH  050%=      5-min Rain = 0
KVE1 250328Z 10010KT 00/M09 A3019 RMK A01 T00031089  RH  050%=      5-min Rain = 0
KVE1 250329Z 10010KT 00/M09 A3019 RMK A01 T00021090  RH  050%=      5-min Rain = 0
KVE1 250330Z 10010KT 00/M09 A3019 RMK A01 T00021090  RH  050%=      5-min Rain = 0
KVE1 250331Z 10010KT 00/M09 A3019 RMK A01 T00011090  RH  050%=      5-min Rain = 0
KVE1 250332Z 10010KT 00/M09 A3019 RMK A01 T00011090  RH  051%=      5-min Rain = 0
KVE1 250333Z 10010KT 00/M09 A3019 RMK A01 T00011090  RH  051%=      5-min Rain = 0
KVE1 250334Z 10010KT 00/M09 A3019 RMK A01 T00011090  RH  051%=      5-min Rain = 0
KVE1 250335Z 10010KT 00/M09 A3019 RMK A01 T00011090  RH  051%=      5-min Rain = 0
KVE1 250336Z 10010KT 00/M09 A3019 RMK A01 T00011089  RH  051%=      5-min Rain = 0
KVE1 250337Z 10010KT 00/09 A3019 RMK A01 T00000-90  RH  051%=      5-min Rain = 0
KVE1 250338Z 10010KT 00/09 A3019 RMK A01 T00-00-90  RH  051%=      5-min Rain = 0
KVE1 250339Z 10011KT M00/M09 A3019 RMK A01 T10011090  RH  051%=      5-min Rain = 0
KVE1 250340Z 10011KT M00/M09 A3019 RMK A01 T10011090  RH  051%=      5-min Rain = 0
KVE1 250341Z 10011KT M00/M09 A3019 RMK A01 T10011090  RH  051%=      5-min Rain = 0
KVE1 250342Z 10011KT M00/M09 A3019 RMK A01 T10011090  RH  051%=      5-min Rain = 0
KVE1 250343Z 10011KT M00/M09 A3019 RMK A01 T10011090  RH  051%=      5-min Rain = 0
KVE1 250344Z 10011KT M00/M09 A3019 RMK A01 T10011090  RH  051%=      5-min Rain = 0
KVE1 250345Z 10011KT M00/M09 A302 RMK A01 T10011090  RH  051%=      5-min Rain = 0
KVE1 250346Z 10011KT M00/M09 A302 RMK A01 T10021090  RH  051%=      5-min Rain = 0
KVE1 250347Z 09010KT M00/M09 A302 RMK A01 T10021090  RH  051%=      5-min Rain = 0
KVE1 250348Z 09011KT M00/M09 A3019 RMK A01 T10021090  RH  051%=      5-min Rain = 0
KVE1 250349Z 10011KT M00/M09 A3019 RMK A01 T10021090  RH  051%=      5-min Rain = 0
KVE1 250350Z 10010KT M00/M09 A3019 RMK A01 T10021090  RH  051%=      5-min Rain = 0
KVE1 250351Z 10010KT M00/M09 A3019 RMK A01 T10021090  RH  051%=      5-min Rain = 0
KVE1 250352Z 10010KT M00/M09 A3019 RMK A01 T10021091  RH  051%=      5-min Rain = 0
KVE1 250353Z 10010KT M00/M09 A3019 RMK A01 T10031091  RH  051%=      5-min Rain = 0
KVE1 250354Z 10010KT M00/M09 A302 RMK A01 T10031091  RH  051%=      5-min Rain = 0
KVE1 250355Z 10011KT M00/M09 A302 RMK A01 T10031091  RH  051%=      5-min Rain = 0
KVE1 250356Z 10011KT M00/M09 A302 RMK A01 T10031091  RH  051%=      5-min Rain = 0
KVE1 250357Z 10010KT M00/M09 A302 RMK A01 T10031091  RH  051%=      5-min Rain = 0
KVE1 250358Z 10010KT M00/M09 A302 RMK A01 T10031091  RH  051%=      5-min Rain = 0
KVE1 250359Z 10010KT M00/M09 A302 RMK A01 T10031091  RH  051%=      5-min Rain = 0
KVE1 250400Z 10010KT M00/M09 A302 RMK A01 T10031092  RH  051%=      5-min Rain = 0
KVE1 250401Z 10010KT M00/M09 A302 RMK A01 T10031092  RH  051%=      5-min Rain = 0
KVE1 250402Z 10010KT M00/M09 A302 RMK A01 T10041092  RH  051%=      5-min Rain = 0
KVE1 250403Z 09010KT M00/M09 A302 RMK A01 T10041092  RH  051%=      5-min Rain = 0
KVE1 250404Z 09009KT M00/M09 A302 RMK A01 T10041092  RH  051%=      5-min Rain = 0
KVE1 250405Z 09009KT M01/M09 A302 RMK A01 T10051092  RH  052%=      5-min Rain = 0
KVE1 250406Z 09009KT M01/M09 A302 RMK A01 T10061092  RH  052%=      5-min Rain = 0
KVE1 250407Z 09009KT M01/M09 A302 RMK A01 T10081093  RH  053%=      5-min Rain = 0
KVE1 250408Z 09009KT M01/M09 A302 RMK A01 T10091093  RH  053%=      5-min Rain = 0
KVE1 250409Z 09009KT M01/M09 A302 RMK A01 T10111093  RH  054%=      5-min Rain = 0
KVE1 250410Z 09009KT M01/M09 A302 RMK A01 T10121093  RH  054%=      5-min Rain = 0
KVE1 250411Z 09009KT M01/M09 A302 RMK A01 T10131093  RH  055%=      5-min Rain = 0
KVE1 250412Z 10009KT M01/M09 A302 RMK A01 T10141093  RH  055%=      5-min Rain = 0
KVE1 250413Z 10009KT M02/M09 A302 RMK A01 T10151092  RH  055%=      5-min Rain = 0
KVE1 250414Z 10009KT M02/M09 A302 RMK A01 T10161093  RH  056%=      5-min Rain = 0
KVE1 250415Z 09009KT M02/M09 A302 RMK A01 T10161092  RH  056%=      5-min Rain = 0
KVE1 250416Z 09009KT M02/M09 A302 RMK A01 T10171093  RH  056%=      5-min Rain = 0
KVE1 250417Z 09009KT M02/M09 A302 RMK A01 T10181093  RH  057%=      5-min Rain = 0
KVE1 250418Z 09009KT M02/M09 A302 RMK A01 T10181093  RH  057%=      5-min Rain = 0
KVE1 250419Z 09009KT M02/M09 A302 RMK A01 T10191093  RH  057%=      5-min Rain = 0
KVE1 250420Z 10009KT M02/M09 A302 RMK A01 T10191093  RH  057%=      5-min Rain = 0
KVE1 250421Z 09009KT M02/M09 A302 RMK A01 T10191093  RH  057%=      5-min Rain = 0
KVE1 250422Z 10009KT M02/M09 A302 RMK A01 T10191093  RH  057%=      5-min Rain = 0
KVE1 250423Z 10009KT M02/M09 A302 RMK A01 T10191093  RH  057%=      5-min Rain = 0
KVE1 250424Z 10009KT M02/M09 A302 RMK A01 T10191093  RH  057%=      5-min Rain = 0
KVE1 250425Z 10010KT M02/M09 A302 RMK A01 T10191093  RH  057%=      5-min Rain = 0
KVE1 250426Z 10009KT M02/M09 A302 RMK A01 T10191093  RH  057%=      5-min Rain = 0
KVE1 250427Z 10009KT M02/M09 A3021 RMK A01 T10191093  RH  057%=      5-min Rain = 0
KVE1 250428Z 10009KT M02/M09 A3021 RMK A01 T10201093  RH  057%=      5-min Rain = 0
KVE1 250429Z 10009KT M02/M09 A3021 RMK A01 T10201093  RH  057%=      5-min Rain = 0
KVE1 250430Z 10009KT M02/M09 A3021 RMK A01 T10201093  RH  057%=      5-min Rain = 0
KVE1 250431Z 10009KT M02/M09 A3021 RMK A01 T10201093  RH  057%=      5-min Rain = 0
KVE1 250432Z 10010KT M02/M09 A3021 RMK A01 T10201093  RH  057%=      5-min Rain = 0
KVE1 250433Z 11010KT M02/M09 A3021 RMK A01 T10201093  RH  057%=      5-min Rain = 0
KVE1 250434Z 10010KT M02/M09 A3021 RMK A01 T10201093  RH  057%=      5-min Rain = 0
KVE1 250435Z 10010KT M02/M09 A3021 RMK A01 T10201093  RH  057%=      5-min Rain = 0
KVE1 250436Z 10011KT M02/M09 A3021 RMK A01 T10201093  RH  057%=      5-min Rain = 0
KVE1 250437Z 10011KT M02/M09 A3021 RMK A01 T10201093  RH  057%=      5-min Rain = 0
KVE1 250438Z 10011KT M02/M09 A3021 RMK A01 T10181093  RH  057%=      5-min Rain = 0
KVE1 250439Z 10012KT M02/M09 A3021 RMK A01 T10161093  RH  056%=      5-min Rain = 0
KVE1 250440Z 10012KT M01/M09 A3021 RMK A01 T10141093  RH  055%=      5-min Rain = 0
KVE1 250441Z 10012KT M01/M09 A3021 RMK A01 T10121093  RH  054%=      5-min Rain = 0
KVE1 250442Z 10012KT M01/M09 A3021 RMK A01 T10091093  RH  053%=      5-min Rain = 0
KVE1 250443Z 10012KT M01/M09 A302 RMK A01 T10081093  RH  052%=      5-min Rain = 0
KVE1 250444Z 10012KT M01/M09 A302 RMK A01 T10071093  RH  052%=      5-min Rain = 0
KVE1 250445Z 10012KT M01/M09 A302 RMK A01 T10071094  RH  052%=      5-min Rain = 0
KVE1 250446Z 10011KT M01/M09 A302 RMK A01 T10061094  RH  052%=      5-min Rain = 0
KVE1 250447Z 10012KT M01/M09 A302 RMK A01 T10061094  RH  052%=      5-min Rain = 0
KVE1 250448Z 10011KT M01/M09 A302 RMK A01 T10061094  RH  051%=      5-min Rain = 0
KVE1 250449Z 10011KT M01/M09 A302 RMK A01 T10061094  RH  051%=      5-min Rain = 0
KVE1 250450Z 10011KT M01/M09 A302 RMK A01 T10051094  RH  051%=      5-min Rain = 0
KVE1 250451Z 10011KT M01/M09 A302 RMK A01 T10061094  RH  051%=      5-min Rain = 0
KVE1 250452Z 10011KT M01/M09 A302 RMK A01 T10061094  RH  051%=      5-min Rain = 0
KVE1 250453Z 10011KT M01/M09 A302 RMK A01 T10061094  RH  051%=      5-min Rain = 0
KVE1 250454Z 10011KT M01/M09 A302 RMK A01 T10071094  RH  052%=      5-min Rain = 0
KVE1 250455Z 10011KT M01/M09 A302 RMK A01 T10071094  RH  052%=      5-min Rain = 0
KVE1 250456Z 10011KT M01/M09 A302 RMK A01 T10081094  RH  052%=      5-min Rain = 0
KVE1 250457Z 10011KT M01/M09 A302 RMK A01 T10091094  RH  052%=      5-min Rain = 0
KVE1 250458Z 10011KT M01/M09 A302 RMK A01 T10091094  RH  053%=      5-min Rain = 0
KVE1 250459Z 10011KT M01/M09 A302 RMK A01 T10091094  RH  053%=      5-min Rain = 0
KVE1 250500Z 10012KT M01/M09 A302 RMK A01 T10091094  RH  053%=      5-min Rain = 0
KVE1 250501Z 10012KT M01/M09 A302 RMK A01 T10091093  RH  053%=      5-min Rain = 0
KVE1 250502Z 10012KT M01/M09 A3019 RMK A01 T10091093  RH  053%=      5-min Rain = 0
KVE1 250503Z 10012KT M01/M09 A3019 RMK A01 T10081093  RH  053%=      5-min Rain = 0
KVE1 250504Z 10012KT M01/M09 A3019 RMK A01 T10071094  RH  052%=      5-min Rain = 0
KVE1 250505Z 10012KT M01/M09 A3019 RMK A01 T10061094  RH  052%=      5-min Rain = 0
KVE1 250506Z 10012KT M01/M09 A3019 RMK A01 T10051094  RH  051%=      5-min Rain = 0
KVE1 250507Z 10012KT M00/M09 A3019 RMK A01 T10041094  RH  050%=      5-min Rain = 0
KVE1 250508Z 10012KT M00/M10 A3019 RMK A01 T10021095  RH  050%=      5-min Rain = 0
KVE1 250509Z 10012KT 00/10 A3019 RMK A01 T00-00-95  RH  049%=      5-min Rain = 0
KVE1 250510Z 10012KT 00/M10 A3019 RMK A01 T00011095  RH  048%=      5-min Rain = 0
KVE1 250511Z 10013KT 00/M10 A302 RMK A01 T00021096  RH  048%=      5-min Rain = 0
KVE1 250512Z 10013KT 00/M10 A302 RMK A01 T00031096  RH  047%=      5-min Rain = 0
KVE1 250513Z 10013KT 00/M10 A302 RMK A01 T00041096  RH  047%=      5-min Rain = 0
KVE1 250514Z 10013KT 01/M10 A302 RMK A01 T00051096  RH  047%=      5-min Rain = 0
KVE1 250515Z 10014KT 01/M10 A3019 RMK A01 T00061097  RH  046%=      5-min Rain = 0
KVE1 250516Z 10014KT 01/M10 A3019 RMK A01 T00081097  RH  045%=      5-min Rain = 0
KVE1 250517Z 10013KT 01/M10 A3019 RMK A01 T00091098  RH  045%=      5-min Rain = 0
KVE1 250518Z 10013KT 01/M10 A3019 RMK A01 T00101098  RH  044%=      5-min Rain = 0
KVE1 250519Z 10013KT 01/M10 A3019 RMK A01 T00101098  RH  044%=      5-min Rain = 0
KVE1 250520Z 10013KT 01/M10 A3019 RMK A01 T00101098  RH  044%=      5-min Rain = 0
KVE1 250521Z 10013KT 01/M10 A3019 RMK A01 T00091099  RH  044%=      5-min Rain = 0
KVE1 250522Z 10013KT 01/M10 A3019 RMK A01 T00091099  RH  044%=      5-min Rain = 0
KVE1 250523Z 10013KT 01/M10 A3019 RMK A01 T00091099  RH  044%=      5-min Rain = 0
KVE1 250524Z 10013KT 01/M10 A3019 RMK A01 T00081099  RH  045%=      5-min Rain = 0
KVE1 250525Z 10013KT 01/M10 A3019 RMK A01 T00081099  RH  045%=      5-min Rain = 0
KVE1 250526Z 10013KT 01/M10 A3019 RMK A01 T00071098  RH  045%=      5-min Rain = 0
KVE1 250527Z 10013KT 01/M10 A3019 RMK A01 T00061098  RH  046%=      5-min Rain = 0
KVE1 250528Z 10013KT 01/M10 A3019 RMK A01 T00051098  RH  046%=      5-min Rain = 0
KVE1 250529Z 10013KT 01/M10 A3019 RMK A01 T00051098  RH  046%=      5-min Rain = 0
KVE1 250530Z 10013KT 01/M10 A3019 RMK A01 T00051098  RH  046%=      5-min Rain = 0
KVE1 250531Z 10013KT 00/M10 A3019 RMK A01 T00041098  RH  046%=      5-min Rain = 0
KVE1 250532Z 10013KT 00/M10 A3019 RMK A01 T00041098  RH  046%=      5-min Rain = 0
KVE1 250533Z 10013KT 00/M10 A3019 RMK A01 T00041098  RH  046%=      5-min Rain = 0
KVE1 250534Z 10013KT 01/M10 A3019 RMK A01 T00051098  RH  046%=      5-min Rain = 0
KVE1 250535Z 10014KT 01/M10 A3019 RMK A01 T00051099  RH  046%=      5-min Rain = 0
KVE1 250536Z 10014KT 01/M10 A3019 RMK A01 T00061099  RH  045%=      5-min Rain = 0
KVE1 250537Z 10014KT 01/M10 A3019 RMK A01 T00061099  RH  045%=      5-min Rain = 0
KVE1 250538Z 10013KT 01/M10 A3019 RMK A01 T00061099  RH  045%=      5-min Rain = 0
KVE1 250539Z 10014KT 01/M10 A3019 RMK A01 T00061099  RH  045%=      5-min Rain = 0
KVE1 250540Z 10013KT 01/M10 A3019 RMK A01 T00051099  RH  046%=      5-min Rain = 0
KVE1 250541Z 10013KT 01/M10 A3019 RMK A01 T00051099  RH  046%=      5-min Rain = 0
KVE1 250542Z 10013KT 00/M10 A3019 RMK A01 T00041099  RH  046%=      5-min Rain = 0
KVE1 250543Z 10013KT 00/M10 A3019 RMK A01 T00031099  RH  046%=      5-min Rain = 0
KVE1 250544Z 10012KT 00/M10 A3019 RMK A01 T00031099  RH  047%=      5-min Rain = 0
KVE1 250545Z 10013KT 00/M10 A3019 RMK A01 T00021099  RH  047%=      5-min Rain = 0
KVE1 250546Z 10013KT 00/M10 A3019 RMK A01 T00011099  RH  047%=      5-min Rain = 0
KVE1 250547Z 10013KT 00/M10 A3019 RMK A01 T00011099  RH  047%=      5-min Rain = 0
KVE1 250548Z 10012KT 00/M10 A302 RMK A01 T00011099  RH  047%=      5-min Rain = 0
KVE1 250549Z 10012KT 00/10 A302 RMK A01 T00000-99  RH  047%=      5-min Rain = 0
KVE1 250550Z 10012KT M00/M10 A302 RMK A01 T10011099  RH  048%=      5-min Rain = 0
KVE1 250551Z 10012KT M00/M10 A302 RMK A01 T10011098  RH  048%=      5-min Rain = 0
KVE1 250552Z 10013KT M00/M10 A302 RMK A01 T10011098  RH  048%=      5-min Rain = 0
KVE1 250553Z 10013KT M00/M10 A302 RMK A01 T10011098  RH  048%=      5-min Rain = 0
KVE1 250554Z 10013KT M00/M10 A302 RMK A01 T10011098  RH  048%=      5-min Rain = 0
KVE1 250555Z 10013KT 00/10 A302 RMK A01 T00-00-99  RH  048%=      5-min Rain = 0
KVE1 250556Z 10013KT 00/M10 A302 RMK A01 T00011099  RH  047%=      5-min Rain = 0
KVE1 250557Z 10013KT 00/M10 A302 RMK A01 T00021099  RH  046%=      5-min Rain = 0
KVE1 250558Z 10013KT 00/M10 A302 RMK A01 T00031099  RH  046%=      5-min Rain = 0
KVE1 250559Z 10013KT 00/M10 A302 RMK A01 T00021099  RH  047%=      5-min Rain = 0

Page generated in 0.1241 seconds.